<?xml version="1.0" encoding="UTF-8" standalone="no" ?>
<gpx xmlns="http://www.topografix.com/GPX/1/1" xmlns:xsi="http://www.w3.org/2001/XMLSchema-instance" xsi:schemaLocation="http://www.topografix.com/GPX/1/1 http://www.topografix.com/GPX/1/1/gpx.xsd" version="1.1" creator="VisuGPX - https://www.visugpx.com">
  <metadata>
    <name>Margeride - can de la Roche</name>
    <desc><![CDATA[balade sur le plateau du can de la roche, entre Rieutord de randon et Mende.
beaucoup de chemins permettent d\'avoir d\'autres circuits dans la même zone]]></desc>
  </metadata>
  <trk>
    <name><![CDATA[Sequence 1]]></name>
    <trkseg>
      <trkpt lat="44.59233" lon="3.49607">
        <ele>1203.3000488281</ele>
        <time>2011-11-20T14:14:00</time>
      </trkpt>
      <trkpt lat="44.5924" lon="3.49617">
        <ele>1202</ele>
        <time>2011-11-20T14:14:09</time>
      </trkpt>
      <trkpt lat="44.59244" lon="3.4963">
        <ele>1200.1999511719</ele>
        <time>2011-11-20T14:14:17</time>
      </trkpt>
      <trkpt lat="44.59283" lon="3.49664">
        <ele>1221.6999511719</ele>
        <time>2011-11-20T14:15:45</time>
      </trkpt>
      <trkpt lat="44.59317" lon="3.49691">
        <ele>1212.4000244141</ele>
        <time>2011-11-20T14:15:59</time>
      </trkpt>
      <trkpt lat="44.59321" lon="3.49696">
        <ele>1206.1999511719</ele>
        <time>2011-11-20T14:16:08</time>
      </trkpt>
      <trkpt lat="44.59339" lon="3.49708">
        <ele>1202.9000244141</ele>
        <time>2011-11-20T14:16:23</time>
      </trkpt>
      <trkpt lat="44.5935" lon="3.49714">
        <ele>1204.3000488281</ele>
        <time>2011-11-20T14:16:32</time>
      </trkpt>
      <trkpt lat="44.59363" lon="3.49722">
        <ele>1207.6999511719</ele>
        <time>2011-11-20T14:16:43</time>
      </trkpt>
      <trkpt lat="44.59368" lon="3.49737">
        <ele>1205.5999755859</ele>
        <time>2011-11-20T14:16:55</time>
      </trkpt>
      <trkpt lat="44.59376" lon="3.49744">
        <ele>1206.5999755859</ele>
        <time>2011-11-20T14:17:01</time>
      </trkpt>
      <trkpt lat="44.59381" lon="3.49752">
        <ele>1209</ele>
        <time>2011-11-20T14:17:10</time>
      </trkpt>
      <trkpt lat="44.59393" lon="3.49754">
        <ele>1213.5</ele>
        <time>2011-11-20T14:17:18</time>
      </trkpt>
      <trkpt lat="44.59399" lon="3.49754">
        <ele>1212.5999755859</ele>
        <time>2011-11-20T14:17:29</time>
      </trkpt>
      <trkpt lat="44.59414" lon="3.49766">
        <ele>1215.3000488281</ele>
        <time>2011-11-20T14:17:43</time>
      </trkpt>
      <trkpt lat="44.59421" lon="3.49773">
        <ele>1215.5</ele>
        <time>2011-11-20T14:17:49</time>
      </trkpt>
      <trkpt lat="44.5942" lon="3.49782">
        <ele>1214.3000488281</ele>
        <time>2011-11-20T14:18:00</time>
      </trkpt>
      <trkpt lat="44.59432" lon="3.49803">
        <ele>1211.8000488281</ele>
        <time>2011-11-20T14:18:16</time>
      </trkpt>
      <trkpt lat="44.59432" lon="3.49812">
        <ele>1212.1999511719</ele>
        <time>2011-11-20T14:18:23</time>
      </trkpt>
      <trkpt lat="44.5944" lon="3.49826">
        <ele>1209.1999511719</ele>
        <time>2011-11-20T14:18:30</time>
      </trkpt>
      <trkpt lat="44.59442" lon="3.49834">
        <ele>1208.8000488281</ele>
        <time>2011-11-20T14:18:39</time>
      </trkpt>
      <trkpt lat="44.59457" lon="3.49846">
        <ele>1211.9000244141</ele>
        <time>2011-11-20T14:18:56</time>
      </trkpt>
      <trkpt lat="44.59466" lon="3.49848">
        <ele>1216.6999511719</ele>
        <time>2011-11-20T14:19:03</time>
      </trkpt>
      <trkpt lat="44.59476" lon="3.49857">
        <ele>1220.0999755859</ele>
        <time>2011-11-20T14:19:16</time>
      </trkpt>
      <trkpt lat="44.59478" lon="3.49862">
        <ele>1219.5</ele>
        <time>2011-11-20T14:19:20</time>
      </trkpt>
      <trkpt lat="44.59532" lon="3.4988">
        <ele>1224.5999755859</ele>
        <time>2011-11-20T14:20:47</time>
      </trkpt>
      <trkpt lat="44.59544" lon="3.49879">
        <ele>1219.1999511719</ele>
        <time>2011-11-20T14:20:51</time>
      </trkpt>
      <trkpt lat="44.59569" lon="3.49881">
        <ele>1220.9000244141</ele>
        <time>2011-11-20T14:21:08</time>
      </trkpt>
      <trkpt lat="44.5958" lon="3.4988">
        <ele>1222.6999511719</ele>
        <time>2011-11-20T14:21:12</time>
      </trkpt>
      <trkpt lat="44.59587" lon="3.49878">
        <ele>1223.5999755859</ele>
        <time>2011-11-20T14:21:21</time>
      </trkpt>
      <trkpt lat="44.59599" lon="3.49887">
        <ele>1224.3000488281</ele>
        <time>2011-11-20T14:21:37</time>
      </trkpt>
      <trkpt lat="44.59609" lon="3.49894">
        <ele>1226.4000244141</ele>
        <time>2011-11-20T14:21:44</time>
      </trkpt>
      <trkpt lat="44.59611" lon="3.49896">
        <ele>1224.3000488281</ele>
        <time>2011-11-20T14:21:51</time>
      </trkpt>
      <trkpt lat="44.59626" lon="3.49902">
        <ele>1229.4000244141</ele>
        <time>2011-11-20T14:22:02</time>
      </trkpt>
      <trkpt lat="44.59629" lon="3.49908">
        <ele>1226.9000244141</ele>
        <time>2011-11-20T14:22:09</time>
      </trkpt>
      <trkpt lat="44.59651" lon="3.4992">
        <ele>1228.1999511719</ele>
        <time>2011-11-20T14:22:27</time>
      </trkpt>
      <trkpt lat="44.59652" lon="3.49924">
        <ele>1228.5999755859</ele>
        <time>2011-11-20T14:22:30</time>
      </trkpt>
      <trkpt lat="44.59674" lon="3.49939">
        <ele>1228.0999755859</ele>
        <time>2011-11-20T14:22:49</time>
      </trkpt>
      <trkpt lat="44.59675" lon="3.49939">
        <ele>1227.5999755859</ele>
        <time>2011-11-20T14:22:50</time>
      </trkpt>
      <trkpt lat="44.59685" lon="3.49941">
        <ele>1228</ele>
        <time>2011-11-20T14:23:02</time>
      </trkpt>
      <trkpt lat="44.59698" lon="3.49942">
        <ele>1226.5999755859</ele>
        <time>2011-11-20T14:23:18</time>
      </trkpt>
      <trkpt lat="44.59708" lon="3.49942">
        <ele>1225.4000244141</ele>
        <time>2011-11-20T14:23:31</time>
      </trkpt>
      <trkpt lat="44.59723" lon="3.49948">
        <ele>1224.0999755859</ele>
        <time>2011-11-20T14:23:40</time>
      </trkpt>
      <trkpt lat="44.5975" lon="3.49933">
        <ele>1226.1999511719</ele>
        <time>2011-11-20T14:23:58</time>
      </trkpt>
      <trkpt lat="44.59757" lon="3.49923">
        <ele>1229.3000488281</ele>
        <time>2011-11-20T14:24:09</time>
      </trkpt>
      <trkpt lat="44.59768" lon="3.49915">
        <ele>1233.9000244141</ele>
        <time>2011-11-20T14:24:21</time>
      </trkpt>
      <trkpt lat="44.59776" lon="3.49909">
        <ele>1228.5999755859</ele>
        <time>2011-11-20T14:24:40</time>
      </trkpt>
      <trkpt lat="44.59797" lon="3.4988">
        <ele>1219.3000488281</ele>
        <time>2011-11-20T14:25:00</time>
      </trkpt>
      <trkpt lat="44.59802" lon="3.49854">
        <ele>1211.5</ele>
        <time>2011-11-20T14:25:41</time>
      </trkpt>
      <trkpt lat="44.59806" lon="3.49828">
        <ele>1214.8000488281</ele>
        <time>2011-11-20T14:25:57</time>
      </trkpt>
      <trkpt lat="44.59809" lon="3.49815">
        <ele>1217.3000488281</ele>
        <time>2011-11-20T14:26:06</time>
      </trkpt>
      <trkpt lat="44.59808" lon="3.4979">
        <ele>1218.9000244141</ele>
        <time>2011-11-20T14:26:21</time>
      </trkpt>
      <trkpt lat="44.59803" lon="3.4978">
        <ele>1224.8000488281</ele>
        <time>2011-11-20T14:26:28</time>
      </trkpt>
      <trkpt lat="44.59803" lon="3.49777">
        <ele>1227.8000488281</ele>
        <time>2011-11-20T14:26:32</time>
      </trkpt>
      <trkpt lat="44.59811" lon="3.49773">
        <ele>1225.6999511719</ele>
        <time>2011-11-20T14:26:48</time>
      </trkpt>
      <trkpt lat="44.59815" lon="3.49771">
        <ele>1228.8000488281</ele>
        <time>2011-11-20T14:26:58</time>
      </trkpt>
      <trkpt lat="44.59821" lon="3.49767">
        <ele>1231.5999755859</ele>
        <time>2011-11-20T14:27:06</time>
      </trkpt>
      <trkpt lat="44.59836" lon="3.49765">
        <ele>1236.0999755859</ele>
        <time>2011-11-20T14:27:21</time>
      </trkpt>
      <trkpt lat="44.59837" lon="3.49764">
        <ele>1236.6999511719</ele>
        <time>2011-11-20T14:27:22</time>
      </trkpt>
      <trkpt lat="44.59842" lon="3.49762">
        <ele>1236.5999755859</ele>
        <time>2011-11-20T14:27:34</time>
      </trkpt>
      <trkpt lat="44.59853" lon="3.4975">
        <ele>1246</ele>
        <time>2011-11-20T14:27:56</time>
      </trkpt>
      <trkpt lat="44.59862" lon="3.49741">
        <ele>1247.4000244141</ele>
        <time>2011-11-20T14:28:06</time>
      </trkpt>
      <trkpt lat="44.59867" lon="3.49739">
        <ele>1247.6999511719</ele>
        <time>2011-11-20T14:28:14</time>
      </trkpt>
      <trkpt lat="44.59876" lon="3.49732">
        <ele>1246.1999511719</ele>
        <time>2011-11-20T14:28:22</time>
      </trkpt>
      <trkpt lat="44.59898" lon="3.49731">
        <ele>1246.6999511719</ele>
        <time>2011-11-20T14:28:42</time>
      </trkpt>
      <trkpt lat="44.59909" lon="3.49721">
        <ele>1244.3000488281</ele>
        <time>2011-11-20T14:28:49</time>
      </trkpt>
      <trkpt lat="44.59917" lon="3.49724">
        <ele>1246.6999511719</ele>
        <time>2011-11-20T14:28:57</time>
      </trkpt>
      <trkpt lat="44.59926" lon="3.49729">
        <ele>1249.9000244141</ele>
        <time>2011-11-20T14:29:10</time>
      </trkpt>
      <trkpt lat="44.59939" lon="3.49726">
        <ele>1249.1999511719</ele>
        <time>2011-11-20T14:29:20</time>
      </trkpt>
      <trkpt lat="44.59941" lon="3.49725">
        <ele>1252.1999511719</ele>
        <time>2011-11-20T14:29:25</time>
      </trkpt>
      <trkpt lat="44.59958" lon="3.49735">
        <ele>1251.1999511719</ele>
        <time>2011-11-20T14:29:38</time>
      </trkpt>
      <trkpt lat="44.59975" lon="3.49743">
        <ele>1249.3000488281</ele>
        <time>2011-11-20T14:29:52</time>
      </trkpt>
      <trkpt lat="44.59976" lon="3.49744">
        <ele>1249.5</ele>
        <time>2011-11-20T14:29:53</time>
      </trkpt>
      <trkpt lat="44.59991" lon="3.49742">
        <ele>1256.6999511719</ele>
        <time>2011-11-20T14:30:12</time>
      </trkpt>
      <trkpt lat="44.59999" lon="3.49742">
        <ele>1255.3000488281</ele>
        <time>2011-11-20T14:30:15</time>
      </trkpt>
      <trkpt lat="44.60021" lon="3.49744">
        <ele>1255</ele>
        <time>2011-11-20T14:30:30</time>
      </trkpt>
      <trkpt lat="44.60028" lon="3.4974">
        <ele>1256</ele>
        <time>2011-11-20T14:30:40</time>
      </trkpt>
      <trkpt lat="44.60038" lon="3.49743">
        <ele>1256.4000244141</ele>
        <time>2011-11-20T14:30:49</time>
      </trkpt>
      <trkpt lat="44.60042" lon="3.49742">
        <ele>1259.4000244141</ele>
        <time>2011-11-20T14:30:56</time>
      </trkpt>
      <trkpt lat="44.60041" lon="3.49738">
        <ele>1260.6999511719</ele>
        <time>2011-11-20T14:31:03</time>
      </trkpt>
      <trkpt lat="44.60045" lon="3.49713">
        <ele>1261.9000244141</ele>
        <time>2011-11-20T14:31:53</time>
      </trkpt>
      <trkpt lat="44.60057" lon="3.49682">
        <ele>1260.8000488281</ele>
        <time>2011-11-20T14:32:09</time>
      </trkpt>
      <trkpt lat="44.60066" lon="3.49667">
        <ele>1259.5999755859</ele>
        <time>2011-11-20T14:32:18</time>
      </trkpt>
      <trkpt lat="44.60071" lon="3.49661">
        <ele>1259.1999511719</ele>
        <time>2011-11-20T14:32:23</time>
      </trkpt>
      <trkpt lat="44.6008" lon="3.49631">
        <ele>1260.1999511719</ele>
        <time>2011-11-20T14:32:42</time>
      </trkpt>
      <trkpt lat="44.6009" lon="3.49629">
        <ele>1259.0999755859</ele>
        <time>2011-11-20T14:32:49</time>
      </trkpt>
      <trkpt lat="44.601" lon="3.49619">
        <ele>1258.5999755859</ele>
        <time>2011-11-20T14:33:00</time>
      </trkpt>
      <trkpt lat="44.60112" lon="3.49612">
        <ele>1257.4000244141</ele>
        <time>2011-11-20T14:33:08</time>
      </trkpt>
      <trkpt lat="44.60122" lon="3.496">
        <ele>1257.3000488281</ele>
        <time>2011-11-20T14:33:16</time>
      </trkpt>
      <trkpt lat="44.60123" lon="3.49579">
        <ele>1260.6999511719</ele>
        <time>2011-11-20T14:33:32</time>
      </trkpt>
      <trkpt lat="44.60129" lon="3.49568">
        <ele>1260.9000244141</ele>
        <time>2011-11-20T14:33:42</time>
      </trkpt>
      <trkpt lat="44.60132" lon="3.49562">
        <ele>1260.6999511719</ele>
        <time>2011-11-20T14:33:47</time>
      </trkpt>
      <trkpt lat="44.60137" lon="3.49557">
        <ele>1265.5999755859</ele>
        <time>2011-11-20T14:33:57</time>
      </trkpt>
      <trkpt lat="44.60151" lon="3.49537">
        <ele>1261.5</ele>
        <time>2011-11-20T14:34:09</time>
      </trkpt>
      <trkpt lat="44.60169" lon="3.49535">
        <ele>1258.0999755859</ele>
        <time>2011-11-20T14:34:21</time>
      </trkpt>
      <trkpt lat="44.60171" lon="3.49533">
        <ele>1259.5</ele>
        <time>2011-11-20T14:34:29</time>
      </trkpt>
      <trkpt lat="44.60176" lon="3.49534">
        <ele>1259.5999755859</ele>
        <time>2011-11-20T14:34:35</time>
      </trkpt>
      <trkpt lat="44.60195" lon="3.49548">
        <ele>1259.9000244141</ele>
        <time>2011-11-20T14:34:49</time>
      </trkpt>
      <trkpt lat="44.60204" lon="3.49548">
        <ele>1262.1999511719</ele>
        <time>2011-11-20T14:35:01</time>
      </trkpt>
      <trkpt lat="44.60215" lon="3.49548">
        <ele>1262.1999511719</ele>
        <time>2011-11-20T14:35:09</time>
      </trkpt>
      <trkpt lat="44.60229" lon="3.49551">
        <ele>1261.0999755859</ele>
        <time>2011-11-20T14:35:19</time>
      </trkpt>
      <trkpt lat="44.60241" lon="3.49556">
        <ele>1260.5</ele>
        <time>2011-11-20T14:35:29</time>
      </trkpt>
      <trkpt lat="44.60252" lon="3.49558">
        <ele>1263.6999511719</ele>
        <time>2011-11-20T14:35:39</time>
      </trkpt>
      <trkpt lat="44.60258" lon="3.4956">
        <ele>1263.4000244141</ele>
        <time>2011-11-20T14:35:45</time>
      </trkpt>
      <trkpt lat="44.60269" lon="3.49569">
        <ele>1265.5999755859</ele>
        <time>2011-11-20T14:35:59</time>
      </trkpt>
      <trkpt lat="44.60289" lon="3.49578">
        <ele>1262.5999755859</ele>
        <time>2011-11-20T14:36:09</time>
      </trkpt>
      <trkpt lat="44.60302" lon="3.49587">
        <ele>1261.9000244141</ele>
        <time>2011-11-20T14:36:19</time>
      </trkpt>
      <trkpt lat="44.60315" lon="3.49589">
        <ele>1261.5</ele>
        <time>2011-11-20T14:36:29</time>
      </trkpt>
      <trkpt lat="44.6033" lon="3.4959">
        <ele>1258.6999511719</ele>
        <time>2011-11-20T14:36:39</time>
      </trkpt>
      <trkpt lat="44.60345" lon="3.49595">
        <ele>1258.3000488281</ele>
        <time>2011-11-20T14:36:52</time>
      </trkpt>
      <trkpt lat="44.60352" lon="3.49596">
        <ele>1259.5</ele>
        <time>2011-11-20T14:36:57</time>
      </trkpt>
      <trkpt lat="44.60358" lon="3.49598">
        <ele>1260.1999511719</ele>
        <time>2011-11-20T14:37:04</time>
      </trkpt>
      <trkpt lat="44.60376" lon="3.49606">
        <ele>1259</ele>
        <time>2011-11-20T14:37:19</time>
      </trkpt>
      <trkpt lat="44.60382" lon="3.49604">
        <ele>1259</ele>
        <time>2011-11-20T14:37:24</time>
      </trkpt>
      <trkpt lat="44.60406" lon="3.49622">
        <ele>1256.5999755859</ele>
        <time>2011-11-20T14:37:41</time>
      </trkpt>
      <trkpt lat="44.60412" lon="3.49625">
        <ele>1256.0999755859</ele>
        <time>2011-11-20T14:37:45</time>
      </trkpt>
      <trkpt lat="44.60432" lon="3.49638">
        <ele>1256</ele>
        <time>2011-11-20T14:38:02</time>
      </trkpt>
      <trkpt lat="44.60436" lon="3.49643">
        <ele>1255.6999511719</ele>
        <time>2011-11-20T14:38:07</time>
      </trkpt>
      <trkpt lat="44.60441" lon="3.49645">
        <ele>1257.1999511719</ele>
        <time>2011-11-20T14:38:15</time>
      </trkpt>
      <trkpt lat="44.60442" lon="3.49642">
        <ele>1261.0999755859</ele>
        <time>2011-11-20T14:38:23</time>
      </trkpt>
      <trkpt lat="44.60489" lon="3.49682">
        <ele>1257.4000244141</ele>
        <time>2011-11-20T14:38:52</time>
      </trkpt>
      <trkpt lat="44.605" lon="3.49688">
        <ele>1257.4000244141</ele>
        <time>2011-11-20T14:39:00</time>
      </trkpt>
      <trkpt lat="44.60502" lon="3.49683">
        <ele>1258.4000244141</ele>
        <time>2011-11-20T14:39:10</time>
      </trkpt>
      <trkpt lat="44.60506" lon="3.49682">
        <ele>1258.6999511719</ele>
        <time>2011-11-20T14:39:15</time>
      </trkpt>
      <trkpt lat="44.60527" lon="3.49708">
        <ele>1254.1999511719</ele>
        <time>2011-11-20T14:39:32</time>
      </trkpt>
      <trkpt lat="44.60529" lon="3.49711">
        <ele>1253.5</ele>
        <time>2011-11-20T14:39:36</time>
      </trkpt>
      <trkpt lat="44.60546" lon="3.49727">
        <ele>1254.5999755859</ele>
        <time>2011-11-20T14:39:50</time>
      </trkpt>
      <trkpt lat="44.60555" lon="3.49734">
        <ele>1254</ele>
        <time>2011-11-20T14:39:57</time>
      </trkpt>
      <trkpt lat="44.60568" lon="3.49741">
        <ele>1251.5</ele>
        <time>2011-11-20T14:40:07</time>
      </trkpt>
      <trkpt lat="44.60589" lon="3.49753">
        <ele>1253.5999755859</ele>
        <time>2011-11-20T14:40:21</time>
      </trkpt>
      <trkpt lat="44.60598" lon="3.49749">
        <ele>1249.6999511719</ele>
        <time>2011-11-20T14:40:33</time>
      </trkpt>
      <trkpt lat="44.60604" lon="3.49748">
        <ele>1248.8000488281</ele>
        <time>2011-11-20T14:40:37</time>
      </trkpt>
      <trkpt lat="44.60608" lon="3.49743">
        <ele>1249.8000488281</ele>
        <time>2011-11-20T14:40:44</time>
      </trkpt>
      <trkpt lat="44.60682" lon="3.49766">
        <ele>1260.5</ele>
        <time>2011-11-20T14:41:39</time>
      </trkpt>
      <trkpt lat="44.60695" lon="3.49774">
        <ele>1257.8000488281</ele>
        <time>2011-11-20T14:41:49</time>
      </trkpt>
      <trkpt lat="44.607" lon="3.49767">
        <ele>1256.8000488281</ele>
        <time>2011-11-20T14:41:58</time>
      </trkpt>
      <trkpt lat="44.60705" lon="3.49767">
        <ele>1256</ele>
        <time>2011-11-20T14:42:02</time>
      </trkpt>
      <trkpt lat="44.60746" lon="3.49779">
        <ele>1252.4000244141</ele>
        <time>2011-11-20T14:42:28</time>
      </trkpt>
      <trkpt lat="44.60766" lon="3.49785">
        <ele>1249.4000244141</ele>
        <time>2011-11-20T14:42:40</time>
      </trkpt>
      <trkpt lat="44.60772" lon="3.49788">
        <ele>1248.0999755859</ele>
        <time>2011-11-20T14:42:45</time>
      </trkpt>
      <trkpt lat="44.60786" lon="3.49793">
        <ele>1245.1999511719</ele>
        <time>2011-11-20T14:42:59</time>
      </trkpt>
      <trkpt lat="44.60798" lon="3.49796">
        <ele>1240.9000244141</ele>
        <time>2011-11-20T14:43:09</time>
      </trkpt>
      <trkpt lat="44.60804" lon="3.49798">
        <ele>1240.6999511719</ele>
        <time>2011-11-20T14:43:14</time>
      </trkpt>
      <trkpt lat="44.60818" lon="3.49806">
        <ele>1240.0999755859</ele>
        <time>2011-11-20T14:43:23</time>
      </trkpt>
      <trkpt lat="44.60833" lon="3.49809">
        <ele>1240.1999511719</ele>
        <time>2011-11-20T14:43:38</time>
      </trkpt>
      <trkpt lat="44.60843" lon="3.49809">
        <ele>1238.4000244141</ele>
        <time>2011-11-20T14:43:44</time>
      </trkpt>
      <trkpt lat="44.60859" lon="3.49805">
        <ele>1237.5</ele>
        <time>2011-11-20T14:43:55</time>
      </trkpt>
      <trkpt lat="44.60867" lon="3.49807">
        <ele>1237.8000488281</ele>
        <time>2011-11-20T14:44:01</time>
      </trkpt>
      <trkpt lat="44.60883" lon="3.4979">
        <ele>1238.0999755859</ele>
        <time>2011-11-20T14:44:20</time>
      </trkpt>
      <trkpt lat="44.60897" lon="3.4979">
        <ele>1236.6999511719</ele>
        <time>2011-11-20T14:44:28</time>
      </trkpt>
      <trkpt lat="44.60908" lon="3.49774">
        <ele>1239.4000244141</ele>
        <time>2011-11-20T14:44:40</time>
      </trkpt>
      <trkpt lat="44.60918" lon="3.49771">
        <ele>1242.0999755859</ele>
        <time>2011-11-20T14:44:47</time>
      </trkpt>
      <trkpt lat="44.60926" lon="3.4977">
        <ele>1243.6999511719</ele>
        <time>2011-11-20T14:44:54</time>
      </trkpt>
      <trkpt lat="44.60942" lon="3.49764">
        <ele>1245.3000488281</ele>
        <time>2011-11-20T14:45:08</time>
      </trkpt>
      <trkpt lat="44.60953" lon="3.49763">
        <ele>1246.0999755859</ele>
        <time>2011-11-20T14:45:47</time>
      </trkpt>
      <trkpt lat="44.6096" lon="3.49763">
        <ele>1246.4000244141</ele>
        <time>2011-11-20T14:45:56</time>
      </trkpt>
      <trkpt lat="44.60967" lon="3.49761">
        <ele>1245.9000244141</ele>
        <time>2011-11-20T14:46:08</time>
      </trkpt>
      <trkpt lat="44.60975" lon="3.4976">
        <ele>1247.6999511719</ele>
        <time>2011-11-20T14:46:13</time>
      </trkpt>
      <trkpt lat="44.60997" lon="3.49761">
        <ele>1245.1999511719</ele>
        <time>2011-11-20T14:46:27</time>
      </trkpt>
      <trkpt lat="44.61012" lon="3.4976">
        <ele>1248</ele>
        <time>2011-11-20T14:46:39</time>
      </trkpt>
      <trkpt lat="44.61024" lon="3.4976">
        <ele>1246.1999511719</ele>
        <time>2011-11-20T14:46:46</time>
      </trkpt>
      <trkpt lat="44.61031" lon="3.49759">
        <ele>1246.5</ele>
        <time>2011-11-20T14:46:51</time>
      </trkpt>
      <trkpt lat="44.61043" lon="3.49754">
        <ele>1242.8000488281</ele>
        <time>2011-11-20T14:47:05</time>
      </trkpt>
      <trkpt lat="44.61076" lon="3.49754">
        <ele>1245.5</ele>
        <time>2011-11-20T14:48:11</time>
      </trkpt>
      <trkpt lat="44.61079" lon="3.49758">
        <ele>1243.6999511719</ele>
        <time>2011-11-20T14:48:18</time>
      </trkpt>
      <trkpt lat="44.61087" lon="3.49758">
        <ele>1239.4000244141</ele>
        <time>2011-11-20T14:48:35</time>
      </trkpt>
      <trkpt lat="44.61107" lon="3.49766">
        <ele>1237.8000488281</ele>
        <time>2011-11-20T14:48:51</time>
      </trkpt>
      <trkpt lat="44.61112" lon="3.49768">
        <ele>1236.9000244141</ele>
        <time>2011-11-20T14:48:58</time>
      </trkpt>
      <trkpt lat="44.61121" lon="3.4977">
        <ele>1237.3000488281</ele>
        <time>2011-11-20T14:49:07</time>
      </trkpt>
      <trkpt lat="44.61125" lon="3.49771">
        <ele>1237.9000244141</ele>
        <time>2011-11-20T14:49:12</time>
      </trkpt>
      <trkpt lat="44.61143" lon="3.49777">
        <ele>1240.5999755859</ele>
        <time>2011-11-20T14:49:28</time>
      </trkpt>
      <trkpt lat="44.61158" lon="3.49773">
        <ele>1234.8000488281</ele>
        <time>2011-11-20T14:49:38</time>
      </trkpt>
      <trkpt lat="44.61167" lon="3.49773">
        <ele>1233.0999755859</ele>
        <time>2011-11-20T14:49:48</time>
      </trkpt>
      <trkpt lat="44.61181" lon="3.49773">
        <ele>1234.1999511719</ele>
        <time>2011-11-20T14:49:59</time>
      </trkpt>
      <trkpt lat="44.61187" lon="3.49774">
        <ele>1234.4000244141</ele>
        <time>2011-11-20T14:50:04</time>
      </trkpt>
      <trkpt lat="44.61207" lon="3.49779">
        <ele>1235.4000244141</ele>
        <time>2011-11-20T14:50:18</time>
      </trkpt>
      <trkpt lat="44.61216" lon="3.4978">
        <ele>1235.6999511719</ele>
        <time>2011-11-20T14:50:26</time>
      </trkpt>
      <trkpt lat="44.61222" lon="3.49782">
        <ele>1236.9000244141</ele>
        <time>2011-11-20T14:50:32</time>
      </trkpt>
      <trkpt lat="44.61237" lon="3.49793">
        <ele>1241.5</ele>
        <time>2011-11-20T14:50:44</time>
      </trkpt>
      <trkpt lat="44.61239" lon="3.4979">
        <ele>1241.4000244141</ele>
        <time>2011-11-20T14:50:53</time>
      </trkpt>
      <trkpt lat="44.61254" lon="3.49791">
        <ele>1239.6999511719</ele>
        <time>2011-11-20T14:51:07</time>
      </trkpt>
      <trkpt lat="44.61266" lon="3.49792">
        <ele>1238</ele>
        <time>2011-11-20T14:51:17</time>
      </trkpt>
      <trkpt lat="44.61283" lon="3.49791">
        <ele>1241.0999755859</ele>
        <time>2011-11-20T14:51:39</time>
      </trkpt>
      <trkpt lat="44.613" lon="3.49789">
        <ele>1241.4000244141</ele>
        <time>2011-11-20T14:51:49</time>
      </trkpt>
      <trkpt lat="44.61313" lon="3.49792">
        <ele>1244.5999755859</ele>
        <time>2011-11-20T14:51:59</time>
      </trkpt>
      <trkpt lat="44.61325" lon="3.49788">
        <ele>1248</ele>
        <time>2011-11-20T14:52:09</time>
      </trkpt>
      <trkpt lat="44.61343" lon="3.49781">
        <ele>1243.5</ele>
        <time>2011-11-20T14:52:18</time>
      </trkpt>
      <trkpt lat="44.61346" lon="3.49774">
        <ele>1241.6999511719</ele>
        <time>2011-11-20T14:52:24</time>
      </trkpt>
      <trkpt lat="44.61337" lon="3.49757">
        <ele>1242</ele>
        <time>2011-11-20T14:52:39</time>
      </trkpt>
      <trkpt lat="44.61337" lon="3.4975">
        <ele>1240.8000488281</ele>
        <time>2011-11-20T14:52:45</time>
      </trkpt>
      <trkpt lat="44.61342" lon="3.49716">
        <ele>1244</ele>
        <time>2011-11-20T14:53:30</time>
      </trkpt>
      <trkpt lat="44.61339" lon="3.49692">
        <ele>1248.0999755859</ele>
        <time>2011-11-20T14:53:41</time>
      </trkpt>
      <trkpt lat="44.61339" lon="3.49689">
        <ele>1248</ele>
        <time>2011-11-20T14:53:44</time>
      </trkpt>
      <trkpt lat="44.61341" lon="3.49682">
        <ele>1248</ele>
        <time>2011-11-20T14:53:54</time>
      </trkpt>
      <trkpt lat="44.61342" lon="3.49677">
        <ele>1248</ele>
        <time>2011-11-20T14:54:02</time>
      </trkpt>
      <trkpt lat="44.6134" lon="3.4963">
        <ele>1248.5</ele>
        <time>2011-11-20T14:54:19</time>
      </trkpt>
      <trkpt lat="44.6134" lon="3.49623">
        <ele>1250.1999511719</ele>
        <time>2011-11-20T14:54:31</time>
      </trkpt>
      <trkpt lat="44.6134" lon="3.49621">
        <ele>1248.5999755859</ele>
        <time>2011-11-20T14:54:33</time>
      </trkpt>
      <trkpt lat="44.61338" lon="3.49605">
        <ele>1245.6999511719</ele>
        <time>2011-11-20T14:54:47</time>
      </trkpt>
      <trkpt lat="44.61337" lon="3.49603">
        <ele>1245</ele>
        <time>2011-11-20T14:54:52</time>
      </trkpt>
      <trkpt lat="44.61322" lon="3.49561">
        <ele>1246.5999755859</ele>
        <time>2011-11-20T14:55:10</time>
      </trkpt>
      <trkpt lat="44.61322" lon="3.49558">
        <ele>1246.3000488281</ele>
        <time>2011-11-20T14:55:13</time>
      </trkpt>
      <trkpt lat="44.61311" lon="3.49515">
        <ele>1239.5</ele>
        <time>2011-11-20T14:55:31</time>
      </trkpt>
      <trkpt lat="44.61307" lon="3.49504">
        <ele>1235.5999755859</ele>
        <time>2011-11-20T14:55:37</time>
      </trkpt>
      <trkpt lat="44.61297" lon="3.49489">
        <ele>1234.3000488281</ele>
        <time>2011-11-20T14:55:45</time>
      </trkpt>
      <trkpt lat="44.61309" lon="3.49453">
        <ele>1233.4000244141</ele>
        <time>2011-11-20T14:56:01</time>
      </trkpt>
      <trkpt lat="44.61309" lon="3.49451">
        <ele>1232.6999511719</ele>
        <time>2011-11-20T14:56:02</time>
      </trkpt>
      <trkpt lat="44.61313" lon="3.49407">
        <ele>1230.0999755859</ele>
        <time>2011-11-20T14:56:18</time>
      </trkpt>
      <trkpt lat="44.61313" lon="3.4938">
        <ele>1226.6999511719</ele>
        <time>2011-11-20T14:56:30</time>
      </trkpt>
      <trkpt lat="44.61314" lon="3.49369">
        <ele>1224.5999755859</ele>
        <time>2011-11-20T14:56:37</time>
      </trkpt>
      <trkpt lat="44.61313" lon="3.49355">
        <ele>1229.9000244141</ele>
        <time>2011-11-20T14:56:49</time>
      </trkpt>
      <trkpt lat="44.61317" lon="3.49329">
        <ele>1230.5</ele>
        <time>2011-11-20T14:57:01</time>
      </trkpt>
      <trkpt lat="44.61321" lon="3.49315">
        <ele>1227.9000244141</ele>
        <time>2011-11-20T14:57:10</time>
      </trkpt>
      <trkpt lat="44.61321" lon="3.49302">
        <ele>1229.5</ele>
        <time>2011-11-20T14:57:20</time>
      </trkpt>
      <trkpt lat="44.61326" lon="3.49293">
        <ele>1229.5</ele>
        <time>2011-11-20T14:57:26</time>
      </trkpt>
      <trkpt lat="44.61331" lon="3.49271">
        <ele>1230.0999755859</ele>
        <time>2011-11-20T14:57:40</time>
      </trkpt>
      <trkpt lat="44.61334" lon="3.4925">
        <ele>1230</ele>
        <time>2011-11-20T14:57:52</time>
      </trkpt>
      <trkpt lat="44.61333" lon="3.49244">
        <ele>1230.6999511719</ele>
        <time>2011-11-20T14:57:55</time>
      </trkpt>
      <trkpt lat="44.61331" lon="3.49237">
        <ele>1233.0999755859</ele>
        <time>2011-11-20T14:58:08</time>
      </trkpt>
      <trkpt lat="44.61334" lon="3.49201">
        <ele>1233.5</ele>
        <time>2011-11-20T14:58:21</time>
      </trkpt>
      <trkpt lat="44.61343" lon="3.49185">
        <ele>1234.8000488281</ele>
        <time>2011-11-20T14:58:32</time>
      </trkpt>
      <trkpt lat="44.61345" lon="3.4917">
        <ele>1234.3000488281</ele>
        <time>2011-11-20T14:58:39</time>
      </trkpt>
      <trkpt lat="44.61345" lon="3.49157">
        <ele>1235.3000488281</ele>
        <time>2011-11-20T14:58:45</time>
      </trkpt>
      <trkpt lat="44.6135" lon="3.49147">
        <ele>1237.6999511719</ele>
        <time>2011-11-20T14:58:56</time>
      </trkpt>
      <trkpt lat="44.61348" lon="3.49131">
        <ele>1238.1999511719</ele>
        <time>2011-11-20T14:59:04</time>
      </trkpt>
      <trkpt lat="44.61352" lon="3.49104">
        <ele>1238.5</ele>
        <time>2011-11-20T14:59:20</time>
      </trkpt>
      <trkpt lat="44.61354" lon="3.49096">
        <ele>1238.6999511719</ele>
        <time>2011-11-20T14:59:25</time>
      </trkpt>
      <trkpt lat="44.61356" lon="3.49084">
        <ele>1238.6999511719</ele>
        <time>2011-11-20T14:59:35</time>
      </trkpt>
      <trkpt lat="44.61365" lon="3.49059">
        <ele>1242.0999755859</ele>
        <time>2011-11-20T14:59:55</time>
      </trkpt>
      <trkpt lat="44.61374" lon="3.4902">
        <ele>1244.0999755859</ele>
        <time>2011-11-20T15:00:09</time>
      </trkpt>
      <trkpt lat="44.61375" lon="3.4901">
        <ele>1243.4000244141</ele>
        <time>2011-11-20T15:00:14</time>
      </trkpt>
      <trkpt lat="44.61389" lon="3.48969">
        <ele>1238.9000244141</ele>
        <time>2011-11-20T15:00:32</time>
      </trkpt>
      <trkpt lat="44.6139" lon="3.48959">
        <ele>1238.1999511719</ele>
        <time>2011-11-20T15:00:37</time>
      </trkpt>
      <trkpt lat="44.61394" lon="3.48943">
        <ele>1239.4000244141</ele>
        <time>2011-11-20T15:00:51</time>
      </trkpt>
      <trkpt lat="44.61391" lon="3.48932">
        <ele>1240</ele>
        <time>2011-11-20T15:00:55</time>
      </trkpt>
      <trkpt lat="44.61396" lon="3.48919">
        <ele>1239.4000244141</ele>
        <time>2011-11-20T15:01:03</time>
      </trkpt>
      <trkpt lat="44.61406" lon="3.48863">
        <ele>1236.6999511719</ele>
        <time>2011-11-20T15:01:31</time>
      </trkpt>
      <trkpt lat="44.61408" lon="3.48845">
        <ele>1237.8000488281</ele>
        <time>2011-11-20T15:01:42</time>
      </trkpt>
      <trkpt lat="44.61416" lon="3.48827">
        <ele>1238</ele>
        <time>2011-11-20T15:01:49</time>
      </trkpt>
      <trkpt lat="44.61422" lon="3.48818">
        <ele>1235.1999511719</ele>
        <time>2011-11-20T15:01:56</time>
      </trkpt>
      <trkpt lat="44.61424" lon="3.48802">
        <ele>1235.6999511719</ele>
        <time>2011-11-20T15:02:07</time>
      </trkpt>
      <trkpt lat="44.61427" lon="3.4879">
        <ele>1237.1999511719</ele>
        <time>2011-11-20T15:02:15</time>
      </trkpt>
      <trkpt lat="44.61426" lon="3.48762">
        <ele>1237.1999511719</ele>
        <time>2011-11-20T15:02:31</time>
      </trkpt>
      <trkpt lat="44.6143" lon="3.48757">
        <ele>1236.5999755859</ele>
        <time>2011-11-20T15:02:35</time>
      </trkpt>
      <trkpt lat="44.6144" lon="3.48739">
        <ele>1235.8000488281</ele>
        <time>2011-11-20T15:02:49</time>
      </trkpt>
      <trkpt lat="44.61442" lon="3.48723">
        <ele>1235.8000488281</ele>
        <time>2011-11-20T15:02:58</time>
      </trkpt>
      <trkpt lat="44.61443" lon="3.487">
        <ele>1236.0999755859</ele>
        <time>2011-11-20T15:03:09</time>
      </trkpt>
      <trkpt lat="44.61448" lon="3.48676">
        <ele>1236.3000488281</ele>
        <time>2011-11-20T15:03:20</time>
      </trkpt>
      <trkpt lat="44.61445" lon="3.48667">
        <ele>1237</ele>
        <time>2011-11-20T15:03:29</time>
      </trkpt>
      <trkpt lat="44.61449" lon="3.48644">
        <ele>1235.4000244141</ele>
        <time>2011-11-20T15:03:39</time>
      </trkpt>
      <trkpt lat="44.61451" lon="3.48627">
        <ele>1237.0999755859</ele>
        <time>2011-11-20T15:03:49</time>
      </trkpt>
      <trkpt lat="44.61452" lon="3.48613">
        <ele>1236.0999755859</ele>
        <time>2011-11-20T15:03:58</time>
      </trkpt>
      <trkpt lat="44.61459" lon="3.48599">
        <ele>1235.6999511719</ele>
        <time>2011-11-20T15:04:09</time>
      </trkpt>
      <trkpt lat="44.61461" lon="3.48595">
        <ele>1236.8000488281</ele>
        <time>2011-11-20T15:04:13</time>
      </trkpt>
      <trkpt lat="44.61468" lon="3.48521">
        <ele>1238.9000244141</ele>
        <time>2011-11-20T15:04:50</time>
      </trkpt>
      <trkpt lat="44.61465" lon="3.48474">
        <ele>1235.9000244141</ele>
        <time>2011-11-20T15:05:22</time>
      </trkpt>
      <trkpt lat="44.61467" lon="3.48466">
        <ele>1236</ele>
        <time>2011-11-20T15:05:26</time>
      </trkpt>
      <trkpt lat="44.61464" lon="3.48454">
        <ele>1238.3000488281</ele>
        <time>2011-11-20T15:05:35</time>
      </trkpt>
      <trkpt lat="44.61475" lon="3.48423">
        <ele>1236.1999511719</ele>
        <time>2011-11-20T15:05:52</time>
      </trkpt>
      <trkpt lat="44.61477" lon="3.48412">
        <ele>1236.1999511719</ele>
        <time>2011-11-20T15:05:57</time>
      </trkpt>
      <trkpt lat="44.61481" lon="3.48395">
        <ele>1236.3000488281</ele>
        <time>2011-11-20T15:06:04</time>
      </trkpt>
      <trkpt lat="44.61486" lon="3.48368">
        <ele>1237.1999511719</ele>
        <time>2011-11-20T15:06:21</time>
      </trkpt>
      <trkpt lat="44.61487" lon="3.48365">
        <ele>1236</ele>
        <time>2011-11-20T15:06:26</time>
      </trkpt>
      <trkpt lat="44.61489" lon="3.48354">
        <ele>1236.8000488281</ele>
        <time>2011-11-20T15:06:34</time>
      </trkpt>
      <trkpt lat="44.61495" lon="3.48317">
        <ele>1236.3000488281</ele>
        <time>2011-11-20T15:06:46</time>
      </trkpt>
      <trkpt lat="44.6149" lon="3.48283">
        <ele>1236.3000488281</ele>
        <time>2011-11-20T15:07:01</time>
      </trkpt>
      <trkpt lat="44.61492" lon="3.48279">
        <ele>1236.5999755859</ele>
        <time>2011-11-20T15:07:07</time>
      </trkpt>
      <trkpt lat="44.61505" lon="3.48255">
        <ele>1235.3000488281</ele>
        <time>2011-11-20T15:07:23</time>
      </trkpt>
      <trkpt lat="44.61506" lon="3.48247">
        <ele>1235.4000244141</ele>
        <time>2011-11-20T15:07:30</time>
      </trkpt>
      <trkpt lat="44.61505" lon="3.48223">
        <ele>1235.4000244141</ele>
        <time>2011-11-20T15:07:39</time>
      </trkpt>
      <trkpt lat="44.61506" lon="3.482">
        <ele>1234.8000488281</ele>
        <time>2011-11-20T15:07:49</time>
      </trkpt>
      <trkpt lat="44.6151" lon="3.48181">
        <ele>1234.8000488281</ele>
        <time>2011-11-20T15:08:01</time>
      </trkpt>
      <trkpt lat="44.61519" lon="3.48163">
        <ele>1231.9000244141</ele>
        <time>2011-11-20T15:08:13</time>
      </trkpt>
      <trkpt lat="44.61521" lon="3.48157">
        <ele>1232.9000244141</ele>
        <time>2011-11-20T15:08:17</time>
      </trkpt>
      <trkpt lat="44.61523" lon="3.48133">
        <ele>1233.5</ele>
        <time>2011-11-20T15:08:30</time>
      </trkpt>
      <trkpt lat="44.61527" lon="3.48113">
        <ele>1231.4000244141</ele>
        <time>2011-11-20T15:08:37</time>
      </trkpt>
      <trkpt lat="44.61526" lon="3.4809">
        <ele>1226.1999511719</ele>
        <time>2011-11-20T15:08:50</time>
      </trkpt>
      <trkpt lat="44.61537" lon="3.48071">
        <ele>1225.8000488281</ele>
        <time>2011-11-20T15:09:00</time>
      </trkpt>
      <trkpt lat="44.61543" lon="3.48066">
        <ele>1226</ele>
        <time>2011-11-20T15:09:07</time>
      </trkpt>
      <trkpt lat="44.61555" lon="3.48057">
        <ele>1222.1999511719</ele>
        <time>2011-11-20T15:09:18</time>
      </trkpt>
      <trkpt lat="44.6157" lon="3.48049">
        <ele>1226.5</ele>
        <time>2011-11-20T15:09:30</time>
      </trkpt>
      <trkpt lat="44.61585" lon="3.48042">
        <ele>1228</ele>
        <time>2011-11-20T15:09:42</time>
      </trkpt>
      <trkpt lat="44.61591" lon="3.48041">
        <ele>1228.4000244141</ele>
        <time>2011-11-20T15:09:47</time>
      </trkpt>
      <trkpt lat="44.61602" lon="3.48034">
        <ele>1227.0999755859</ele>
        <time>2011-11-20T15:09:59</time>
      </trkpt>
      <trkpt lat="44.6157" lon="3.4805">
        <ele>1225.3000488281</ele>
        <time>2011-11-20T15:12:32</time>
      </trkpt>
      <trkpt lat="44.61562" lon="3.48056">
        <ele>1226.9000244141</ele>
        <time>2011-11-20T15:12:44</time>
      </trkpt>
      <trkpt lat="44.61552" lon="3.48061">
        <ele>1227.5999755859</ele>
        <time>2011-11-20T15:12:48</time>
      </trkpt>
      <trkpt lat="44.61541" lon="3.48074">
        <ele>1225.8000488281</ele>
        <time>2011-11-20T15:12:55</time>
      </trkpt>
      <trkpt lat="44.61533" lon="3.48097">
        <ele>1227.3000488281</ele>
        <time>2011-11-20T15:13:08</time>
      </trkpt>
      <trkpt lat="44.61534" lon="3.48127">
        <ele>1229.4000244141</ele>
        <time>2011-11-20T15:13:24</time>
      </trkpt>
      <trkpt lat="44.6153" lon="3.48139">
        <ele>1226.3000488281</ele>
        <time>2011-11-20T15:13:32</time>
      </trkpt>
      <trkpt lat="44.6153" lon="3.48147">
        <ele>1224.3000488281</ele>
        <time>2011-11-20T15:13:37</time>
      </trkpt>
      <trkpt lat="44.6152" lon="3.48187">
        <ele>1226.0999755859</ele>
        <time>2011-11-20T15:13:58</time>
      </trkpt>
      <trkpt lat="44.61468" lon="3.48438">
        <ele>1237</ele>
        <time>2011-11-20T15:16:15</time>
      </trkpt>
      <trkpt lat="44.6147" lon="3.48455">
        <ele>1239.5</ele>
        <time>2011-11-20T15:16:25</time>
      </trkpt>
      <trkpt lat="44.61466" lon="3.48459">
        <ele>1237.9000244141</ele>
        <time>2011-11-20T15:16:29</time>
      </trkpt>
      <trkpt lat="44.61472" lon="3.48495">
        <ele>1234.6999511719</ele>
        <time>2011-11-20T15:16:55</time>
      </trkpt>
      <trkpt lat="44.61474" lon="3.48517">
        <ele>1232.5999755859</ele>
        <time>2011-11-20T15:17:04</time>
      </trkpt>
      <trkpt lat="44.61474" lon="3.4853">
        <ele>1232.3000488281</ele>
        <time>2011-11-20T15:17:11</time>
      </trkpt>
      <trkpt lat="44.61465" lon="3.48555">
        <ele>1235.4000244141</ele>
        <time>2011-11-20T15:17:25</time>
      </trkpt>
      <trkpt lat="44.61464" lon="3.48562">
        <ele>1233.8000488281</ele>
        <time>2011-11-20T15:17:32</time>
      </trkpt>
      <trkpt lat="44.61462" lon="3.48571">
        <ele>1234.0999755859</ele>
        <time>2011-11-20T15:17:36</time>
      </trkpt>
      <trkpt lat="44.61462" lon="3.48594">
        <ele>1230.5</ele>
        <time>2011-11-20T15:17:49</time>
      </trkpt>
      <trkpt lat="44.61465" lon="3.48601">
        <ele>1228.9000244141</ele>
        <time>2011-11-20T15:18:04</time>
      </trkpt>
      <trkpt lat="44.61462" lon="3.48617">
        <ele>1229</ele>
        <time>2011-11-20T15:18:26</time>
      </trkpt>
      <trkpt lat="44.61451" lon="3.48657">
        <ele>1227.5</ele>
        <time>2011-11-20T15:18:45</time>
      </trkpt>
      <trkpt lat="44.61447" lon="3.48675">
        <ele>1231</ele>
        <time>2011-11-20T15:18:53</time>
      </trkpt>
      <trkpt lat="44.61451" lon="3.48682">
        <ele>1231</ele>
        <time>2011-11-20T15:18:57</time>
      </trkpt>
      <trkpt lat="44.6145" lon="3.48709">
        <ele>1233.8000488281</ele>
        <time>2011-11-20T15:19:14</time>
      </trkpt>
      <trkpt lat="44.61449" lon="3.48727">
        <ele>1235.0999755859</ele>
        <time>2011-11-20T15:19:24</time>
      </trkpt>
      <trkpt lat="44.61432" lon="3.48781">
        <ele>1235.8000488281</ele>
        <time>2011-11-20T15:19:55</time>
      </trkpt>
      <trkpt lat="44.61428" lon="3.48801">
        <ele>1235.4000244141</ele>
        <time>2011-11-20T15:20:03</time>
      </trkpt>
      <trkpt lat="44.61427" lon="3.4881">
        <ele>1235.1999511719</ele>
        <time>2011-11-20T15:20:08</time>
      </trkpt>
      <trkpt lat="44.61424" lon="3.48827">
        <ele>1235.9000244141</ele>
        <time>2011-11-20T15:20:16</time>
      </trkpt>
      <trkpt lat="44.6142" lon="3.48832">
        <ele>1238.0999755859</ele>
        <time>2011-11-20T15:20:27</time>
      </trkpt>
      <trkpt lat="44.61399" lon="3.48897">
        <ele>1241.1999511719</ele>
        <time>2011-11-20T15:21:05</time>
      </trkpt>
      <trkpt lat="44.61394" lon="3.48908">
        <ele>1240.6999511719</ele>
        <time>2011-11-20T15:21:12</time>
      </trkpt>
      <trkpt lat="44.61392" lon="3.48935">
        <ele>1241.0999755859</ele>
        <time>2011-11-20T15:21:25</time>
      </trkpt>
      <trkpt lat="44.6139" lon="3.48943">
        <ele>1241.0999755859</ele>
        <time>2011-11-20T15:21:29</time>
      </trkpt>
      <trkpt lat="44.61391" lon="3.48964">
        <ele>1240.1999511719</ele>
        <time>2011-11-20T15:21:37</time>
      </trkpt>
      <trkpt lat="44.6139" lon="3.49">
        <ele>1239.6999511719</ele>
        <time>2011-11-20T15:21:54</time>
      </trkpt>
      <trkpt lat="44.61389" lon="3.49003">
        <ele>1238.8000488281</ele>
        <time>2011-11-20T15:21:56</time>
      </trkpt>
      <trkpt lat="44.61382" lon="3.49012">
        <ele>1241</ele>
        <time>2011-11-20T15:22:06</time>
      </trkpt>
      <trkpt lat="44.61383" lon="3.4903">
        <ele>1244.5</ele>
        <time>2011-11-20T15:22:18</time>
      </trkpt>
      <trkpt lat="44.61377" lon="3.49059">
        <ele>1241.5999755859</ele>
        <time>2011-11-20T15:22:35</time>
      </trkpt>
      <trkpt lat="44.61371" lon="3.49071">
        <ele>1243.4000244141</ele>
        <time>2011-11-20T15:22:43</time>
      </trkpt>
      <trkpt lat="44.61366" lon="3.49081">
        <ele>1244.5999755859</ele>
        <time>2011-11-20T15:22:55</time>
      </trkpt>
      <trkpt lat="44.61365" lon="3.49094">
        <ele>1242.4000244141</ele>
        <time>2011-11-20T15:23:02</time>
      </trkpt>
      <trkpt lat="44.61366" lon="3.49098">
        <ele>1243.6999511719</ele>
        <time>2011-11-20T15:23:06</time>
      </trkpt>
      <trkpt lat="44.61361" lon="3.49128">
        <ele>1245.5999755859</ele>
        <time>2011-11-20T15:23:22</time>
      </trkpt>
      <trkpt lat="44.61361" lon="3.49136">
        <ele>1246</ele>
        <time>2011-11-20T15:23:26</time>
      </trkpt>
      <trkpt lat="44.6135" lon="3.49164">
        <ele>1241</ele>
        <time>2011-11-20T15:23:42</time>
      </trkpt>
      <trkpt lat="44.6135" lon="3.49179">
        <ele>1241.5999755859</ele>
        <time>2011-11-20T15:23:49</time>
      </trkpt>
      <trkpt lat="44.61343" lon="3.49211">
        <ele>1239.8000488281</ele>
        <time>2011-11-20T15:24:05</time>
      </trkpt>
      <trkpt lat="44.61338" lon="3.49226">
        <ele>1238.8000488281</ele>
        <time>2011-11-20T15:24:12</time>
      </trkpt>
      <trkpt lat="44.61337" lon="3.49234">
        <ele>1238.0999755859</ele>
        <time>2011-11-20T15:24:16</time>
      </trkpt>
      <trkpt lat="44.61336" lon="3.49249">
        <ele>1237</ele>
        <time>2011-11-20T15:24:26</time>
      </trkpt>
      <trkpt lat="44.61337" lon="3.49266">
        <ele>1235.6999511719</ele>
        <time>2011-11-20T15:24:37</time>
      </trkpt>
      <trkpt lat="44.61328" lon="3.49295">
        <ele>1234.0999755859</ele>
        <time>2011-11-20T15:24:53</time>
      </trkpt>
      <trkpt lat="44.61326" lon="3.49312">
        <ele>1233</ele>
        <time>2011-11-20T15:25:02</time>
      </trkpt>
      <trkpt lat="44.61327" lon="3.49321">
        <ele>1233.1999511719</ele>
        <time>2011-11-20T15:25:07</time>
      </trkpt>
      <trkpt lat="44.61326" lon="3.49341">
        <ele>1231.6999511719</ele>
        <time>2011-11-20T15:25:18</time>
      </trkpt>
      <trkpt lat="44.61317" lon="3.4937">
        <ele>1230.9000244141</ele>
        <time>2011-11-20T15:25:32</time>
      </trkpt>
      <trkpt lat="44.61317" lon="3.49385">
        <ele>1229.9000244141</ele>
        <time>2011-11-20T15:25:40</time>
      </trkpt>
      <trkpt lat="44.61318" lon="3.49405">
        <ele>1232.5</ele>
        <time>2011-11-20T15:25:51</time>
      </trkpt>
      <trkpt lat="44.61316" lon="3.49434">
        <ele>1232.1999511719</ele>
        <time>2011-11-20T15:26:03</time>
      </trkpt>
      <trkpt lat="44.61315" lon="3.49444">
        <ele>1231.3000488281</ele>
        <time>2011-11-20T15:26:09</time>
      </trkpt>
      <trkpt lat="44.61314" lon="3.49464">
        <ele>1230</ele>
        <time>2011-11-20T15:26:22</time>
      </trkpt>
      <trkpt lat="44.61312" lon="3.49483">
        <ele>1230</ele>
        <time>2011-11-20T15:26:34</time>
      </trkpt>
      <trkpt lat="44.61313" lon="3.49493">
        <ele>1229.9000244141</ele>
        <time>2011-11-20T15:26:39</time>
      </trkpt>
      <trkpt lat="44.61317" lon="3.49513">
        <ele>1228.9000244141</ele>
        <time>2011-11-20T15:26:53</time>
      </trkpt>
      <trkpt lat="44.61324" lon="3.49526">
        <ele>1229.4000244141</ele>
        <time>2011-11-20T15:27:03</time>
      </trkpt>
      <trkpt lat="44.61323" lon="3.49533">
        <ele>1228.9000244141</ele>
        <time>2011-11-20T15:27:07</time>
      </trkpt>
      <trkpt lat="44.61335" lon="3.4962">
        <ele>1230.1999511719</ele>
        <time>2011-11-20T15:27:46</time>
      </trkpt>
      <trkpt lat="44.61336" lon="3.49634">
        <ele>1228.9000244141</ele>
        <time>2011-11-20T15:27:55</time>
      </trkpt>
      <trkpt lat="44.61338" lon="3.49656">
        <ele>1228.6999511719</ele>
        <time>2011-11-20T15:28:06</time>
      </trkpt>
      <trkpt lat="44.61339" lon="3.49659">
        <ele>1228.5999755859</ele>
        <time>2011-11-20T15:28:08</time>
      </trkpt>
      <trkpt lat="44.61341" lon="3.4969">
        <ele>1232.5</ele>
        <time>2011-11-20T15:28:20</time>
      </trkpt>
      <trkpt lat="44.61337" lon="3.49704">
        <ele>1231.1999511719</ele>
        <time>2011-11-20T15:28:27</time>
      </trkpt>
      <trkpt lat="44.61347" lon="3.49764">
        <ele>1233.6999511719</ele>
        <time>2011-11-20T15:29:05</time>
      </trkpt>
      <trkpt lat="44.6135" lon="3.49779">
        <ele>1235.3000488281</ele>
        <time>2011-11-20T15:29:16</time>
      </trkpt>
      <trkpt lat="44.61343" lon="3.4979">
        <ele>1232.6999511719</ele>
        <time>2011-11-20T15:29:25</time>
      </trkpt>
      <trkpt lat="44.61331" lon="3.49796">
        <ele>1237</ele>
        <time>2011-11-20T15:29:33</time>
      </trkpt>
      <trkpt lat="44.6132" lon="3.49795">
        <ele>1236.4000244141</ele>
        <time>2011-11-20T15:29:43</time>
      </trkpt>
      <trkpt lat="44.61302" lon="3.49796">
        <ele>1239.8000488281</ele>
        <time>2011-11-20T15:29:54</time>
      </trkpt>
      <trkpt lat="44.61286" lon="3.49796">
        <ele>1236.6999511719</ele>
        <time>2011-11-20T15:30:03</time>
      </trkpt>
      <trkpt lat="44.61279" lon="3.49795">
        <ele>1236.0999755859</ele>
        <time>2011-11-20T15:30:08</time>
      </trkpt>
      <trkpt lat="44.61266" lon="3.49796">
        <ele>1235</ele>
        <time>2011-11-20T15:30:18</time>
      </trkpt>
      <trkpt lat="44.61244" lon="3.49794">
        <ele>1232.6999511719</ele>
        <time>2011-11-20T15:30:33</time>
      </trkpt>
      <trkpt lat="44.61229" lon="3.49792">
        <ele>1231.4000244141</ele>
        <time>2011-11-20T15:30:43</time>
      </trkpt>
      <trkpt lat="44.61218" lon="3.49787">
        <ele>1232.3000488281</ele>
        <time>2011-11-20T15:30:53</time>
      </trkpt>
      <trkpt lat="44.6121" lon="3.49784">
        <ele>1233.6999511719</ele>
        <time>2011-11-20T15:31:03</time>
      </trkpt>
      <trkpt lat="44.61194" lon="3.49783">
        <ele>1233.9000244141</ele>
        <time>2011-11-20T15:31:13</time>
      </trkpt>
      <trkpt lat="44.61184" lon="3.4978">
        <ele>1233</ele>
        <time>2011-11-20T15:31:24</time>
      </trkpt>
      <trkpt lat="44.61169" lon="3.49778">
        <ele>1232</ele>
        <time>2011-11-20T15:31:33</time>
      </trkpt>
      <trkpt lat="44.61153" lon="3.49776">
        <ele>1232.4000244141</ele>
        <time>2011-11-20T15:31:44</time>
      </trkpt>
      <trkpt lat="44.61141" lon="3.49774">
        <ele>1230.5999755859</ele>
        <time>2011-11-20T15:31:52</time>
      </trkpt>
      <trkpt lat="44.61125" lon="3.49775">
        <ele>1228.3000488281</ele>
        <time>2011-11-20T15:32:03</time>
      </trkpt>
      <trkpt lat="44.61117" lon="3.49775">
        <ele>1227.8000488281</ele>
        <time>2011-11-20T15:32:11</time>
      </trkpt>
      <trkpt lat="44.61102" lon="3.49775">
        <ele>1226.6999511719</ele>
        <time>2011-11-20T15:32:21</time>
      </trkpt>
      <trkpt lat="44.61094" lon="3.49775">
        <ele>1225.5999755859</ele>
        <time>2011-11-20T15:32:27</time>
      </trkpt>
      <trkpt lat="44.61086" lon="3.4977">
        <ele>1226.3000488281</ele>
        <time>2011-11-20T15:32:38</time>
      </trkpt>
      <trkpt lat="44.61073" lon="3.4977">
        <ele>1229.4000244141</ele>
        <time>2011-11-20T15:32:53</time>
      </trkpt>
      <trkpt lat="44.61054" lon="3.49764">
        <ele>1231.6999511719</ele>
        <time>2011-11-20T15:33:07</time>
      </trkpt>
      <trkpt lat="44.61041" lon="3.49763">
        <ele>1233.1999511719</ele>
        <time>2011-11-20T15:33:16</time>
      </trkpt>
      <trkpt lat="44.61029" lon="3.49762">
        <ele>1234.5999755859</ele>
        <time>2011-11-20T15:33:24</time>
      </trkpt>
      <trkpt lat="44.61015" lon="3.4976">
        <ele>1237.5999755859</ele>
        <time>2011-11-20T15:33:34</time>
      </trkpt>
      <trkpt lat="44.61004" lon="3.49765">
        <ele>1236.3000488281</ele>
        <time>2011-11-20T15:33:41</time>
      </trkpt>
      <trkpt lat="44.60985" lon="3.49767">
        <ele>1238.8000488281</ele>
        <time>2011-11-20T15:34:04</time>
      </trkpt>
      <trkpt lat="44.60967" lon="3.4977">
        <ele>1236.5</ele>
        <time>2011-11-20T15:34:15</time>
      </trkpt>
      <trkpt lat="44.60957" lon="3.49769">
        <ele>1236.6999511719</ele>
        <time>2011-11-20T15:34:20</time>
      </trkpt>
      <trkpt lat="44.6094" lon="3.49775">
        <ele>1237.9000244141</ele>
        <time>2011-11-20T15:34:34</time>
      </trkpt>
      <trkpt lat="44.60917" lon="3.49778">
        <ele>1237.5</ele>
        <time>2011-11-20T15:34:46</time>
      </trkpt>
      <trkpt lat="44.60911" lon="3.4978">
        <ele>1236.4000244141</ele>
        <time>2011-11-20T15:34:50</time>
      </trkpt>
      <trkpt lat="44.60907" lon="3.49792">
        <ele>1242.4000244141</ele>
        <time>2011-11-20T15:35:00</time>
      </trkpt>
      <trkpt lat="44.60894" lon="3.49799">
        <ele>1240</ele>
        <time>2011-11-20T15:35:14</time>
      </trkpt>
      <trkpt lat="44.60875" lon="3.49804">
        <ele>1239.3000488281</ele>
        <time>2011-11-20T15:35:22</time>
      </trkpt>
      <trkpt lat="44.60865" lon="3.49811">
        <ele>1240.5</ele>
        <time>2011-11-20T15:35:35</time>
      </trkpt>
      <trkpt lat="44.60849" lon="3.49813">
        <ele>1239.1999511719</ele>
        <time>2011-11-20T15:35:44</time>
      </trkpt>
      <trkpt lat="44.60838" lon="3.49814">
        <ele>1240.8000488281</ele>
        <time>2011-11-20T15:35:54</time>
      </trkpt>
      <trkpt lat="44.60821" lon="3.49813">
        <ele>1238.3000488281</ele>
        <time>2011-11-20T15:36:04</time>
      </trkpt>
      <trkpt lat="44.60808" lon="3.49806">
        <ele>1236.0999755859</ele>
        <time>2011-11-20T15:36:14</time>
      </trkpt>
      <trkpt lat="44.60797" lon="3.49799">
        <ele>1236</ele>
        <time>2011-11-20T15:36:24</time>
      </trkpt>
      <trkpt lat="44.60784" lon="3.498">
        <ele>1239</ele>
        <time>2011-11-20T15:36:35</time>
      </trkpt>
      <trkpt lat="44.60775" lon="3.49793">
        <ele>1244.1999511719</ele>
        <time>2011-11-20T15:36:46</time>
      </trkpt>
      <trkpt lat="44.60764" lon="3.49791">
        <ele>1244.1999511719</ele>
        <time>2011-11-20T15:36:56</time>
      </trkpt>
      <trkpt lat="44.60751" lon="3.49789">
        <ele>1249.8000488281</ele>
        <time>2011-11-20T15:37:07</time>
      </trkpt>
      <trkpt lat="44.60738" lon="3.49783">
        <ele>1248.6999511719</ele>
        <time>2011-11-20T15:37:20</time>
      </trkpt>
      <trkpt lat="44.6073" lon="3.49781">
        <ele>1252.1999511719</ele>
        <time>2011-11-20T15:37:29</time>
      </trkpt>
      <trkpt lat="44.60728" lon="3.49781">
        <ele>1255.0999755859</ele>
        <time>2011-11-20T15:37:31</time>
      </trkpt>
      <trkpt lat="44.60711" lon="3.49779">
        <ele>1254.3000488281</ele>
        <time>2011-11-20T15:37:44</time>
      </trkpt>
      <trkpt lat="44.60698" lon="3.49778">
        <ele>1257.5999755859</ele>
        <time>2011-11-20T15:37:54</time>
      </trkpt>
      <trkpt lat="44.60674" lon="3.49766">
        <ele>1257.9000244141</ele>
        <time>2011-11-20T15:38:11</time>
      </trkpt>
      <trkpt lat="44.60663" lon="3.49762">
        <ele>1254.8000488281</ele>
        <time>2011-11-20T15:38:19</time>
      </trkpt>
      <trkpt lat="44.6065" lon="3.49754">
        <ele>1255.3000488281</ele>
        <time>2011-11-20T15:38:28</time>
      </trkpt>
      <trkpt lat="44.60637" lon="3.49754">
        <ele>1254.6999511719</ele>
        <time>2011-11-20T15:38:38</time>
      </trkpt>
      <trkpt lat="44.60622" lon="3.49753">
        <ele>1256.0999755859</ele>
        <time>2011-11-20T15:38:48</time>
      </trkpt>
      <trkpt lat="44.60614" lon="3.49749">
        <ele>1254.9000244141</ele>
        <time>2011-11-20T15:38:54</time>
      </trkpt>
      <trkpt lat="44.60604" lon="3.49747">
        <ele>1252.5</ele>
        <time>2011-11-20T15:39:07</time>
      </trkpt>
      <trkpt lat="44.60589" lon="3.49751">
        <ele>1254.3000488281</ele>
        <time>2011-11-20T15:39:18</time>
      </trkpt>
      <trkpt lat="44.6057" lon="3.49742">
        <ele>1254.4000244141</ele>
        <time>2011-11-20T15:39:29</time>
      </trkpt>
      <trkpt lat="44.6056" lon="3.49737">
        <ele>1254.4000244141</ele>
        <time>2011-11-20T15:39:36</time>
      </trkpt>
      <trkpt lat="44.6055" lon="3.49732">
        <ele>1253.5</ele>
        <time>2011-11-20T15:39:45</time>
      </trkpt>
      <trkpt lat="44.60539" lon="3.49726">
        <ele>1254.9000244141</ele>
        <time>2011-11-20T15:39:56</time>
      </trkpt>
      <trkpt lat="44.60532" lon="3.49718">
        <ele>1254.1999511719</ele>
        <time>2011-11-20T15:40:05</time>
      </trkpt>
      <trkpt lat="44.6052" lon="3.49705">
        <ele>1255</ele>
        <time>2011-11-20T15:40:18</time>
      </trkpt>
      <trkpt lat="44.60515" lon="3.49697">
        <ele>1253.9000244141</ele>
        <time>2011-11-20T15:40:25</time>
      </trkpt>
      <trkpt lat="44.605" lon="3.49684">
        <ele>1253.9000244141</ele>
        <time>2011-11-20T15:40:38</time>
      </trkpt>
      <trkpt lat="44.60488" lon="3.49675">
        <ele>1252.8000488281</ele>
        <time>2011-11-20T15:40:47</time>
      </trkpt>
      <trkpt lat="44.60481" lon="3.49672">
        <ele>1253</ele>
        <time>2011-11-20T15:40:53</time>
      </trkpt>
      <trkpt lat="44.60461" lon="3.49663">
        <ele>1253.3000488281</ele>
        <time>2011-11-20T15:41:07</time>
      </trkpt>
      <trkpt lat="44.6045" lon="3.49652">
        <ele>1253.6999511719</ele>
        <time>2011-11-20T15:41:20</time>
      </trkpt>
      <trkpt lat="44.60443" lon="3.49645">
        <ele>1253.9000244141</ele>
        <time>2011-11-20T15:41:28</time>
      </trkpt>
      <trkpt lat="44.60435" lon="3.49643">
        <ele>1253.5</ele>
        <time>2011-11-20T15:41:35</time>
      </trkpt>
      <trkpt lat="44.60415" lon="3.49641">
        <ele>1252.5999755859</ele>
        <time>2011-11-20T15:41:47</time>
      </trkpt>
      <trkpt lat="44.60403" lon="3.49638">
        <ele>1254.4000244141</ele>
        <time>2011-11-20T15:41:56</time>
      </trkpt>
      <trkpt lat="44.60391" lon="3.49622">
        <ele>1251.5</ele>
        <time>2011-11-20T15:42:09</time>
      </trkpt>
      <trkpt lat="44.60381" lon="3.49618">
        <ele>1253.6999511719</ele>
        <time>2011-11-20T15:42:18</time>
      </trkpt>
      <trkpt lat="44.60368" lon="3.4961">
        <ele>1253.3000488281</ele>
        <time>2011-11-20T15:42:28</time>
      </trkpt>
      <trkpt lat="44.60355" lon="3.49603">
        <ele>1253.4000244141</ele>
        <time>2011-11-20T15:42:37</time>
      </trkpt>
      <trkpt lat="44.60346" lon="3.49593">
        <ele>1256.1999511719</ele>
        <time>2011-11-20T15:42:47</time>
      </trkpt>
      <trkpt lat="44.60328" lon="3.4959">
        <ele>1259.4000244141</ele>
        <time>2011-11-20T15:43:01</time>
      </trkpt>
      <trkpt lat="44.6032" lon="3.49587">
        <ele>1259.4000244141</ele>
        <time>2011-11-20T15:43:09</time>
      </trkpt>
      <trkpt lat="44.60318" lon="3.49587">
        <ele>1259.6999511719</ele>
        <time>2011-11-20T15:43:12</time>
      </trkpt>
      <trkpt lat="44.60292" lon="3.49578">
        <ele>1259.9000244141</ele>
        <time>2011-11-20T15:43:29</time>
      </trkpt>
      <trkpt lat="44.60277" lon="3.49574">
        <ele>1260.9000244141</ele>
        <time>2011-11-20T15:43:39</time>
      </trkpt>
      <trkpt lat="44.60269" lon="3.49571">
        <ele>1260.6999511719</ele>
        <time>2011-11-20T15:43:45</time>
      </trkpt>
      <trkpt lat="44.60264" lon="3.4957">
        <ele>1262.8000488281</ele>
        <time>2011-11-20T15:43:52</time>
      </trkpt>
      <trkpt lat="44.60239" lon="3.49559">
        <ele>1262.0999755859</ele>
        <time>2011-11-20T15:44:09</time>
      </trkpt>
      <trkpt lat="44.60235" lon="3.49558">
        <ele>1261.9000244141</ele>
        <time>2011-11-20T15:44:12</time>
      </trkpt>
      <trkpt lat="44.60216" lon="3.49554">
        <ele>1260.8000488281</ele>
        <time>2011-11-20T15:44:30</time>
      </trkpt>
      <trkpt lat="44.60205" lon="3.49557">
        <ele>1261.0999755859</ele>
        <time>2011-11-20T15:44:38</time>
      </trkpt>
      <trkpt lat="44.60195" lon="3.49556">
        <ele>1260.4000244141</ele>
        <time>2011-11-20T15:44:47</time>
      </trkpt>
      <trkpt lat="44.60188" lon="3.49541">
        <ele>1264</ele>
        <time>2011-11-20T15:44:55</time>
      </trkpt>
      <trkpt lat="44.6017" lon="3.49533">
        <ele>1259.4000244141</ele>
        <time>2011-11-20T15:45:11</time>
      </trkpt>
      <trkpt lat="44.60164" lon="3.4953">
        <ele>1259.0999755859</ele>
        <time>2011-11-20T15:45:15</time>
      </trkpt>
      <trkpt lat="44.60154" lon="3.49529">
        <ele>1258.5</ele>
        <time>2011-11-20T15:45:23</time>
      </trkpt>
      <trkpt lat="44.60134" lon="3.4954">
        <ele>1257.4000244141</ele>
        <time>2011-11-20T15:45:40</time>
      </trkpt>
      <trkpt lat="44.60133" lon="3.49547">
        <ele>1258.0999755859</ele>
        <time>2011-11-20T15:45:43</time>
      </trkpt>
      <trkpt lat="44.60125" lon="3.49562">
        <ele>1256.1999511719</ele>
        <time>2011-11-20T15:45:54</time>
      </trkpt>
      <trkpt lat="44.60102" lon="3.49625">
        <ele>1253.5</ele>
        <time>2011-11-20T15:46:41</time>
      </trkpt>
      <trkpt lat="44.60098" lon="3.4963">
        <ele>1252.3000488281</ele>
        <time>2011-11-20T15:46:43</time>
      </trkpt>
      <trkpt lat="44.60083" lon="3.49646">
        <ele>1252.5</ele>
        <time>2011-11-20T15:46:55</time>
      </trkpt>
      <trkpt lat="44.60053" lon="3.49682">
        <ele>1249.5999755859</ele>
        <time>2011-11-20T15:47:21</time>
      </trkpt>
      <trkpt lat="44.60052" lon="3.49683">
        <ele>1249.5999755859</ele>
        <time>2011-11-20T15:47:22</time>
      </trkpt>
      <trkpt lat="44.60034" lon="3.49723">
        <ele>1249.4000244141</ele>
        <time>2011-11-20T15:47:49</time>
      </trkpt>
      <trkpt lat="44.60033" lon="3.49754">
        <ele>1256.0999755859</ele>
        <time>2011-11-20T15:48:00</time>
      </trkpt>
      <trkpt lat="44.6003" lon="3.4977">
        <ele>1265</ele>
        <time>2011-11-20T15:48:12</time>
      </trkpt>
      <trkpt lat="44.60029" lon="3.49781">
        <ele>1269.4000244141</ele>
        <time>2011-11-20T15:48:19</time>
      </trkpt>
      <trkpt lat="44.60026" lon="3.49785">
        <ele>1268.6999511719</ele>
        <time>2011-11-20T15:48:23</time>
      </trkpt>
      <trkpt lat="44.60019" lon="3.49971">
        <ele>1266.5</ele>
        <time>2011-11-20T15:50:12</time>
      </trkpt>
      <trkpt lat="44.60018" lon="3.49974">
        <ele>1266.5999755859</ele>
        <time>2011-11-20T15:50:16</time>
      </trkpt>
      <trkpt lat="44.6002" lon="3.49993">
        <ele>1266.9000244141</ele>
        <time>2011-11-20T15:50:29</time>
      </trkpt>
      <trkpt lat="44.60022" lon="3.50007">
        <ele>1267.6999511719</ele>
        <time>2011-11-20T15:50:35</time>
      </trkpt>
      <trkpt lat="44.60031" lon="3.50044">
        <ele>1269.4000244141</ele>
        <time>2011-11-20T15:51:02</time>
      </trkpt>
      <trkpt lat="44.60039" lon="3.50062">
        <ele>1270.3000488281</ele>
        <time>2011-11-20T15:51:09</time>
      </trkpt>
      <trkpt lat="44.60038" lon="3.50079">
        <ele>1274.3000488281</ele>
        <time>2011-11-20T15:51:22</time>
      </trkpt>
      <trkpt lat="44.60051" lon="3.50099">
        <ele>1276.8000488281</ele>
        <time>2011-11-20T15:51:31</time>
      </trkpt>
      <trkpt lat="44.60083" lon="3.50141">
        <ele>1278.0999755859</ele>
        <time>2011-11-20T15:52:07</time>
      </trkpt>
      <trkpt lat="44.6008" lon="3.5014">
        <ele>1278.6999511719</ele>
        <time>2011-11-20T15:52:08</time>
      </trkpt>
      <trkpt lat="44.6009" lon="3.50174">
        <ele>1280.1999511719</ele>
        <time>2011-11-20T15:52:37</time>
      </trkpt>
      <trkpt lat="44.60091" lon="3.50176">
        <ele>1280.6999511719</ele>
        <time>2011-11-20T15:52:39</time>
      </trkpt>
      <trkpt lat="44.60102" lon="3.50189">
        <ele>1282.6999511719</ele>
        <time>2011-11-20T15:52:48</time>
      </trkpt>
      <trkpt lat="44.60124" lon="3.50232">
        <ele>1285.3000488281</ele>
        <time>2011-11-20T15:53:11</time>
      </trkpt>
      <trkpt lat="44.60141" lon="3.50285">
        <ele>1289.3000488281</ele>
        <time>2011-11-20T15:53:51</time>
      </trkpt>
      <trkpt lat="44.6018" lon="3.50351">
        <ele>1290</ele>
        <time>2011-11-20T15:54:34</time>
      </trkpt>
      <trkpt lat="44.60188" lon="3.50382">
        <ele>1287.8000488281</ele>
        <time>2011-11-20T15:54:47</time>
      </trkpt>
      <trkpt lat="44.60188" lon="3.50401">
        <ele>1284.4000244141</ele>
        <time>2011-11-20T15:54:57</time>
      </trkpt>
      <trkpt lat="44.60187" lon="3.50405">
        <ele>1284.3000488281</ele>
        <time>2011-11-20T15:54:59</time>
      </trkpt>
      <trkpt lat="44.60202" lon="3.50434">
        <ele>1282</ele>
        <time>2011-11-20T15:55:15</time>
      </trkpt>
      <trkpt lat="44.602" lon="3.50436">
        <ele>1282.5</ele>
        <time>2011-11-20T15:55:18</time>
      </trkpt>
      <trkpt lat="44.60203" lon="3.50452">
        <ele>1281.4000244141</ele>
        <time>2011-11-20T15:55:35</time>
      </trkpt>
      <trkpt lat="44.60197" lon="3.50427">
        <ele>1291.0999755859</ele>
        <time>2011-11-20T15:56:19</time>
      </trkpt>
      <trkpt lat="44.60194" lon="3.5038">
        <ele>1289.6999511719</ele>
        <time>2011-11-20T15:56:46</time>
      </trkpt>
      <trkpt lat="44.6019" lon="3.50369">
        <ele>1289.5</ele>
        <time>2011-11-20T15:56:55</time>
      </trkpt>
      <trkpt lat="44.60181" lon="3.50351">
        <ele>1291.6999511719</ele>
        <time>2011-11-20T15:57:08</time>
      </trkpt>
      <trkpt lat="44.6018" lon="3.50343">
        <ele>1290.4000244141</ele>
        <time>2011-11-20T15:57:12</time>
      </trkpt>
      <trkpt lat="44.60171" lon="3.50315">
        <ele>1289.3000488281</ele>
        <time>2011-11-20T15:57:26</time>
      </trkpt>
      <trkpt lat="44.60161" lon="3.503">
        <ele>1287.0999755859</ele>
        <time>2011-11-20T15:57:37</time>
      </trkpt>
      <trkpt lat="44.60157" lon="3.50286">
        <ele>1286.9000244141</ele>
        <time>2011-11-20T15:57:45</time>
      </trkpt>
      <trkpt lat="44.6015" lon="3.50279">
        <ele>1286.0999755859</ele>
        <time>2011-11-20T15:57:52</time>
      </trkpt>
      <trkpt lat="44.60141" lon="3.50262">
        <ele>1282.3000488281</ele>
        <time>2011-11-20T15:58:03</time>
      </trkpt>
      <trkpt lat="44.60138" lon="3.50252">
        <ele>1281.8000488281</ele>
        <time>2011-11-20T15:58:09</time>
      </trkpt>
      <trkpt lat="44.60127" lon="3.50235">
        <ele>1281.1999511719</ele>
        <time>2011-11-20T15:58:26</time>
      </trkpt>
      <trkpt lat="44.60121" lon="3.50231">
        <ele>1281.5999755859</ele>
        <time>2011-11-20T15:58:31</time>
      </trkpt>
      <trkpt lat="44.60114" lon="3.50219">
        <ele>1280.5999755859</ele>
        <time>2011-11-20T15:58:40</time>
      </trkpt>
      <trkpt lat="44.60103" lon="3.50212">
        <ele>1281.4000244141</ele>
        <time>2011-11-20T15:58:52</time>
      </trkpt>
      <trkpt lat="44.60093" lon="3.50205">
        <ele>1284.0999755859</ele>
        <time>2011-11-20T15:59:02</time>
      </trkpt>
      <trkpt lat="44.60078" lon="3.50205">
        <ele>1286.6999511719</ele>
        <time>2011-11-20T15:59:17</time>
      </trkpt>
      <trkpt lat="44.60067" lon="3.50168">
        <ele>1286.5</ele>
        <time>2011-11-20T15:59:36</time>
      </trkpt>
      <trkpt lat="44.60063" lon="3.50123">
        <ele>1286.6999511719</ele>
        <time>2011-11-20T15:59:49</time>
      </trkpt>
      <trkpt lat="44.60055" lon="3.50114">
        <ele>1285.5</ele>
        <time>2011-11-20T15:59:57</time>
      </trkpt>
      <trkpt lat="44.60044" lon="3.5012">
        <ele>1287.5</ele>
        <time>2011-11-20T16:00:04</time>
      </trkpt>
      <trkpt lat="44.6002" lon="3.50053">
        <ele>1287.5</ele>
        <time>2011-11-20T16:00:45</time>
      </trkpt>
      <trkpt lat="44.60019" lon="3.5004">
        <ele>1285.6999511719</ele>
        <time>2011-11-20T16:00:50</time>
      </trkpt>
      <trkpt lat="44.60017" lon="3.50003">
        <ele>1284.9000244141</ele>
        <time>2011-11-20T16:01:07</time>
      </trkpt>
      <trkpt lat="44.60018" lon="3.49991">
        <ele>1282.5999755859</ele>
        <time>2011-11-20T16:01:13</time>
      </trkpt>
      <trkpt lat="44.60014" lon="3.49974">
        <ele>1281.5999755859</ele>
        <time>2011-11-20T16:01:22</time>
      </trkpt>
      <trkpt lat="44.60012" lon="3.49949">
        <ele>1278.9000244141</ele>
        <time>2011-11-20T16:01:34</time>
      </trkpt>
      <trkpt lat="44.6001" lon="3.49923">
        <ele>1278.4000244141</ele>
        <time>2011-11-20T16:01:46</time>
      </trkpt>
      <trkpt lat="44.60009" lon="3.49912">
        <ele>1278.0999755859</ele>
        <time>2011-11-20T16:01:53</time>
      </trkpt>
      <trkpt lat="44.60008" lon="3.499">
        <ele>1277.5</ele>
        <time>2011-11-20T16:02:01</time>
      </trkpt>
      <trkpt lat="44.6001" lon="3.49801">
        <ele>1276.6999511719</ele>
        <time>2011-11-20T16:03:08</time>
      </trkpt>
      <trkpt lat="44.60033" lon="3.49739">
        <ele>1265.9000244141</ele>
        <time>2011-11-20T16:03:27</time>
      </trkpt>
      <trkpt lat="44.60027" lon="3.49738">
        <ele>1263.1999511719</ele>
        <time>2011-11-20T16:03:39</time>
      </trkpt>
      <trkpt lat="44.60016" lon="3.49735">
        <ele>1261.3000488281</ele>
        <time>2011-11-20T16:03:48</time>
      </trkpt>
      <trkpt lat="44.6001" lon="3.49736">
        <ele>1261.6999511719</ele>
        <time>2011-11-20T16:03:52</time>
      </trkpt>
      <trkpt lat="44.60001" lon="3.49736">
        <ele>1261.5</ele>
        <time>2011-11-20T16:04:03</time>
      </trkpt>
      <trkpt lat="44.59989" lon="3.49733">
        <ele>1262.9000244141</ele>
        <time>2011-11-20T16:04:11</time>
      </trkpt>
      <trkpt lat="44.5996" lon="3.49738">
        <ele>1258.5999755859</ele>
        <time>2011-11-20T16:04:29</time>
      </trkpt>
      <trkpt lat="44.59953" lon="3.49732">
        <ele>1262.1999511719</ele>
        <time>2011-11-20T16:04:39</time>
      </trkpt>
      <trkpt lat="44.59952" lon="3.49732">
        <ele>1260.4000244141</ele>
        <time>2011-11-20T16:04:42</time>
      </trkpt>
      <trkpt lat="44.5994" lon="3.49726">
        <ele>1259.6999511719</ele>
        <time>2011-11-20T16:04:52</time>
      </trkpt>
      <trkpt lat="44.59921" lon="3.49728">
        <ele>1260.4000244141</ele>
        <time>2011-11-20T16:05:05</time>
      </trkpt>
      <trkpt lat="44.59907" lon="3.49729">
        <ele>1262.8000488281</ele>
        <time>2011-11-20T16:05:27</time>
      </trkpt>
      <trkpt lat="44.59902" lon="3.49732">
        <ele>1262.0999755859</ele>
        <time>2011-11-20T16:05:30</time>
      </trkpt>
      <trkpt lat="44.59877" lon="3.49742">
        <ele>1261.5999755859</ele>
        <time>2011-11-20T16:05:42</time>
      </trkpt>
      <trkpt lat="44.59852" lon="3.49765">
        <ele>1252</ele>
        <time>2011-11-20T16:05:59</time>
      </trkpt>
      <trkpt lat="44.59839" lon="3.49768">
        <ele>1251.9000244141</ele>
        <time>2011-11-20T16:06:09</time>
      </trkpt>
      <trkpt lat="44.59836" lon="3.49764">
        <ele>1251.1999511719</ele>
        <time>2011-11-20T16:06:11</time>
      </trkpt>
      <trkpt lat="44.59818" lon="3.49773">
        <ele>1245.6999511719</ele>
        <time>2011-11-20T16:06:28</time>
      </trkpt>
      <trkpt lat="44.59812" lon="3.49775">
        <ele>1242.4000244141</ele>
        <time>2011-11-20T16:06:32</time>
      </trkpt>
      <trkpt lat="44.59803" lon="3.49784">
        <ele>1242.1999511719</ele>
        <time>2011-11-20T16:06:41</time>
      </trkpt>
      <trkpt lat="44.59804" lon="3.4979">
        <ele>1240</ele>
        <time>2011-11-20T16:06:51</time>
      </trkpt>
      <trkpt lat="44.59787" lon="3.49826">
        <ele>1239.5</ele>
        <time>2011-11-20T16:07:43</time>
      </trkpt>
      <trkpt lat="44.59767" lon="3.49918">
        <ele>1231.9000244141</ele>
        <time>2011-11-20T16:08:19</time>
      </trkpt>
      <trkpt lat="44.59757" lon="3.4992">
        <ele>1230.3000488281</ele>
        <time>2011-11-20T16:08:26</time>
      </trkpt>
      <trkpt lat="44.59747" lon="3.4993">
        <ele>1224.1999511719</ele>
        <time>2011-11-20T16:08:40</time>
      </trkpt>
      <trkpt lat="44.59747" lon="3.4993">
        <ele>1223.5</ele>
        <time>2011-11-20T16:08:42</time>
      </trkpt>
      <trkpt lat="44.59736" lon="3.49935">
        <ele>1225.5</ele>
        <time>2011-11-20T16:08:59</time>
      </trkpt>
      <trkpt lat="44.59723" lon="3.49939">
        <ele>1222.4000244141</ele>
        <time>2011-11-20T16:09:09</time>
      </trkpt>
      <trkpt lat="44.59717" lon="3.4994">
        <ele>1221.0999755859</ele>
        <time>2011-11-20T16:09:14</time>
      </trkpt>
      <trkpt lat="44.59706" lon="3.49942">
        <ele>1221.3000488281</ele>
        <time>2011-11-20T16:09:22</time>
      </trkpt>
      <trkpt lat="44.5969" lon="3.4994">
        <ele>1220.4000244141</ele>
        <time>2011-11-20T16:09:36</time>
      </trkpt>
      <trkpt lat="44.59682" lon="3.49942">
        <ele>1220.6999511719</ele>
        <time>2011-11-20T16:09:43</time>
      </trkpt>
      <trkpt lat="44.59666" lon="3.49928">
        <ele>1219.5</ele>
        <time>2011-11-20T16:09:54</time>
      </trkpt>
      <trkpt lat="44.59649" lon="3.49914">
        <ele>1219.1999511719</ele>
        <time>2011-11-20T16:10:10</time>
      </trkpt>
      <trkpt lat="44.59641" lon="3.4991">
        <ele>1217.4000244141</ele>
        <time>2011-11-20T16:10:17</time>
      </trkpt>
      <trkpt lat="44.59634" lon="3.49904">
        <ele>1222.6999511719</ele>
        <time>2011-11-20T16:10:23</time>
      </trkpt>
      <trkpt lat="44.59618" lon="3.49896">
        <ele>1221.1999511719</ele>
        <time>2011-11-20T16:10:37</time>
      </trkpt>
      <trkpt lat="44.59605" lon="3.49891">
        <ele>1218.0999755859</ele>
        <time>2011-11-20T16:10:45</time>
      </trkpt>
      <trkpt lat="44.59586" lon="3.49885">
        <ele>1211.5999755859</ele>
        <time>2011-11-20T16:10:56</time>
      </trkpt>
      <trkpt lat="44.59568" lon="3.49877">
        <ele>1209.6999511719</ele>
        <time>2011-11-20T16:11:06</time>
      </trkpt>
      <trkpt lat="44.59542" lon="3.49875">
        <ele>1211.1999511719</ele>
        <time>2011-11-20T16:11:30</time>
      </trkpt>
      <trkpt lat="44.59531" lon="3.49879">
        <ele>1210.4000244141</ele>
        <time>2011-11-20T16:11:38</time>
      </trkpt>
      <trkpt lat="44.59526" lon="3.4988">
        <ele>1209.5</ele>
        <time>2011-11-20T16:11:42</time>
      </trkpt>
      <trkpt lat="44.59494" lon="3.49882">
        <ele>1209.0999755859</ele>
        <time>2011-11-20T16:12:10</time>
      </trkpt>
      <trkpt lat="44.59483" lon="3.4987">
        <ele>1208.9000244141</ele>
        <time>2011-11-20T16:12:18</time>
      </trkpt>
      <trkpt lat="44.59473" lon="3.49858">
        <ele>1209.5999755859</ele>
        <time>2011-11-20T16:12:24</time>
      </trkpt>
      <trkpt lat="44.5945" lon="3.49843">
        <ele>1209.3000488281</ele>
        <time>2011-11-20T16:12:39</time>
      </trkpt>
      <trkpt lat="44.59445" lon="3.49838">
        <ele>1209.0999755859</ele>
        <time>2011-11-20T16:12:45</time>
      </trkpt>
      <trkpt lat="44.59432" lon="3.49821">
        <ele>1209.3000488281</ele>
        <time>2011-11-20T16:13:00</time>
      </trkpt>
      <trkpt lat="44.59427" lon="3.49814">
        <ele>1212.1999511719</ele>
        <time>2011-11-20T16:13:06</time>
      </trkpt>
      <trkpt lat="44.59419" lon="3.49807">
        <ele>1217.4000244141</ele>
        <time>2011-11-20T16:13:13</time>
      </trkpt>
      <trkpt lat="44.59416" lon="3.49774">
        <ele>1211.5999755859</ele>
        <time>2011-11-20T16:13:29</time>
      </trkpt>
      <trkpt lat="44.59409" lon="3.49767">
        <ele>1211.4000244141</ele>
        <time>2011-11-20T16:13:40</time>
      </trkpt>
      <trkpt lat="44.59405" lon="3.49766">
        <ele>1208.5</ele>
        <time>2011-11-20T16:13:43</time>
      </trkpt>
      <trkpt lat="44.5939" lon="3.49771">
        <ele>1203.1999511719</ele>
        <time>2011-11-20T16:13:58</time>
      </trkpt>
      <trkpt lat="44.59371" lon="3.49753">
        <ele>1206.1999511719</ele>
        <time>2011-11-20T16:14:09</time>
      </trkpt>
      <trkpt lat="44.59361" lon="3.49734">
        <ele>1209.1999511719</ele>
        <time>2011-11-20T16:14:18</time>
      </trkpt>
      <trkpt lat="44.59359" lon="3.49731">
        <ele>1207.9000244141</ele>
        <time>2011-11-20T16:14:22</time>
      </trkpt>
      <trkpt lat="44.59343" lon="3.49714">
        <ele>1203.1999511719</ele>
        <time>2011-11-20T16:14:39</time>
      </trkpt>
      <trkpt lat="44.59333" lon="3.49716">
        <ele>1203.8000488281</ele>
        <time>2011-11-20T16:14:51</time>
      </trkpt>
      <trkpt lat="44.59329" lon="3.49717">
        <ele>1202</ele>
        <time>2011-11-20T16:14:54</time>
      </trkpt>
      <trkpt lat="44.59318" lon="3.49718">
        <ele>1199.6999511719</ele>
        <time>2011-11-20T16:15:08</time>
      </trkpt>
      <trkpt lat="44.59315" lon="3.49717">
        <ele>1199.0999755859</ele>
        <time>2011-11-20T16:15:14</time>
      </trkpt>
      <trkpt lat="44.59294" lon="3.49708">
        <ele>1202.4000244141</ele>
        <time>2011-11-20T16:15:26</time>
      </trkpt>
      <trkpt lat="44.59278" lon="3.49685">
        <ele>1196.4000244141</ele>
        <time>2011-11-20T16:15:41</time>
      </trkpt>
      <trkpt lat="44.5927" lon="3.49671">
        <ele>1196.9000244141</ele>
        <time>2011-11-20T16:15:51</time>
      </trkpt>
      <trkpt lat="44.59264" lon="3.49659">
        <ele>1196.8000488281</ele>
        <time>2011-11-20T16:15:59</time>
      </trkpt>
      <trkpt lat="44.59258" lon="3.4965">
        <ele>1196.4000244141</ele>
        <time>2011-11-20T16:16:06</time>
      </trkpt>
      <trkpt lat="44.59245" lon="3.49632">
        <ele>1196.4000244141</ele>
        <time>2011-11-20T16:16:19</time>
      </trkpt>
      <trkpt lat="44.59239" lon="3.49622">
        <ele>1195.1999511719</ele>
        <time>2011-11-20T16:16:26</time>
      </trkpt>
      <trkpt lat="44.59234" lon="3.49618">
        <ele>1194.5</ele>
        <time>2011-11-20T16:16:37</time>
      </trkpt>
      <trkpt lat="44.59166" lon="3.49541">
        <ele>1187</ele>
        <time>2011-11-20T16:17:38</time>
      </trkpt>
      <trkpt lat="44.59153" lon="3.49526">
        <ele>1184.1999511719</ele>
        <time>2011-11-20T16:17:46</time>
      </trkpt>
      <trkpt lat="44.59154" lon="3.49518">
        <ele>1187.6999511719</ele>
        <time>2011-11-20T16:17:57</time>
      </trkpt>
      <trkpt lat="44.59147" lon="3.49517">
        <ele>1188.3000488281</ele>
        <time>2011-11-20T16:18:08</time>
      </trkpt>
      <trkpt lat="44.59139" lon="3.49512">
        <ele>1187.8000488281</ele>
        <time>2011-11-20T16:18:13</time>
      </trkpt>
      <trkpt lat="44.5913" lon="3.49508">
        <ele>1196.4000244141</ele>
        <time>2011-11-20T16:18:21</time>
      </trkpt>
      <trkpt lat="44.59103" lon="3.49494">
        <ele>1196</ele>
        <time>2011-11-20T16:18:35</time>
      </trkpt>
      <trkpt lat="44.59079" lon="3.49484">
        <ele>1186.6999511719</ele>
        <time>2011-11-20T16:18:48</time>
      </trkpt>
      <trkpt lat="44.5907" lon="3.4948">
        <ele>1184.9000244141</ele>
        <time>2011-11-20T16:18:56</time>
      </trkpt>
      <trkpt lat="44.59058" lon="3.49487">
        <ele>1185.0999755859</ele>
        <time>2011-11-20T16:19:09</time>
      </trkpt>
      <trkpt lat="44.59055" lon="3.4949">
        <ele>1183.1999511719</ele>
        <time>2011-11-20T16:19:12</time>
      </trkpt>
      <trkpt lat="44.59035" lon="3.49495">
        <ele>1184.1999511719</ele>
        <time>2011-11-20T16:19:28</time>
      </trkpt>
      <trkpt lat="44.59019" lon="3.49495">
        <ele>1179.8000488281</ele>
        <time>2011-11-20T16:19:38</time>
      </trkpt>
      <trkpt lat="44.59002" lon="3.49492">
        <ele>1172.8000488281</ele>
        <time>2011-11-20T16:19:48</time>
      </trkpt>
      <trkpt lat="44.58988" lon="3.49479">
        <ele>1173.9000244141</ele>
        <time>2011-11-20T16:19:59</time>
      </trkpt>
      <trkpt lat="44.58984" lon="3.4947">
        <ele>1178.0999755859</ele>
        <time>2011-11-20T16:20:05</time>
      </trkpt>
      <trkpt lat="44.58968" lon="3.49445">
        <ele>1176.9000244141</ele>
        <time>2011-11-20T16:20:20</time>
      </trkpt>
      <trkpt lat="44.58963" lon="3.49443">
        <ele>1176.5999755859</ele>
        <time>2011-11-20T16:20:23</time>
      </trkpt>
      <trkpt lat="44.58944" lon="3.49426">
        <ele>1174.6999511719</ele>
        <time>2011-11-20T16:20:39</time>
      </trkpt>
      <trkpt lat="44.58939" lon="3.49423">
        <ele>1174.5999755859</ele>
        <time>2011-11-20T16:20:45</time>
      </trkpt>
      <trkpt lat="44.58926" lon="3.49405">
        <ele>1180.5999755859</ele>
        <time>2011-11-20T16:20:59</time>
      </trkpt>
      <trkpt lat="44.58918" lon="3.49397">
        <ele>1178.5999755859</ele>
        <time>2011-11-20T16:21:08</time>
      </trkpt>
      <trkpt lat="44.58913" lon="3.4939">
        <ele>1173.9000244141</ele>
        <time>2011-11-20T16:21:14</time>
      </trkpt>
      <trkpt lat="44.58894" lon="3.49379">
        <ele>1178.9000244141</ele>
        <time>2011-11-20T16:21:26</time>
      </trkpt>
      <trkpt lat="44.58886" lon="3.49373">
        <ele>1175</ele>
        <time>2011-11-20T16:21:35</time>
      </trkpt>
      <trkpt lat="44.58868" lon="3.49366">
        <ele>1173.0999755859</ele>
        <time>2011-11-20T16:21:48</time>
      </trkpt>
      <trkpt lat="44.58853" lon="3.49351">
        <ele>1172</ele>
        <time>2011-11-20T16:22:00</time>
      </trkpt>
      <trkpt lat="44.58846" lon="3.49351">
        <ele>1174.1999511719</ele>
        <time>2011-11-20T16:22:05</time>
      </trkpt>
      <trkpt lat="44.58833" lon="3.49337">
        <ele>1173.8000488281</ele>
        <time>2011-11-20T16:22:20</time>
      </trkpt>
      <trkpt lat="44.58831" lon="3.49331">
        <ele>1172.3000488281</ele>
        <time>2011-11-20T16:22:25</time>
      </trkpt>
      <trkpt lat="44.58825" lon="3.49326">
        <ele>1170.6999511719</ele>
        <time>2011-11-20T16:22:33</time>
      </trkpt>
      <trkpt lat="44.58817" lon="3.49319">
        <ele>1168</ele>
        <time>2011-11-20T16:22:44</time>
      </trkpt>
      <trkpt lat="44.58808" lon="3.49312">
        <ele>1168.5999755859</ele>
        <time>2011-11-20T16:22:55</time>
      </trkpt>
      <trkpt lat="44.58795" lon="3.49304">
        <ele>1167.8000488281</ele>
        <time>2011-11-20T16:23:08</time>
      </trkpt>
      <trkpt lat="44.58786" lon="3.49302">
        <ele>1165.1999511719</ele>
        <time>2011-11-20T16:23:16</time>
      </trkpt>
    </trkseg>
  </trk>
</gpx>